<?xml version="1.0" encoding="UTF-8" standalone="no" ?>
<gpx xmlns="http://www.topografix.com/GPX/1/1" xmlns:xsi="http://www.w3.org/2001/XMLSchema-instance" xsi:schemaLocation="http://www.topografix.com/GPX/1/1 http://www.topografix.com/GPX/1/1/gpx.xsd" version="1.1" creator="VisuGPX - https://www.visugpx.com">
  <metadata>
    <name>Saint-Clément-des-Baleines </name>
  </metadata>
  <trk>
    <name><![CDATA[Saint-Clément-des-Baleines _1]]></name>
    <trkseg>
      <trkpt lat="46.22897" lon="-1.542">
        <ele>2.6</ele>
        <time>2025-06-29T19:14:38Z</time>
      </trkpt>
      <trkpt lat="46.22897" lon="-1.542">
        <ele>2.6</ele>
        <time>2025-06-29T19:14:39Z</time>
      </trkpt>
      <trkpt lat="46.2289" lon="-1.54195">
        <ele>2.6</ele>
        <time>2025-06-29T19:14:45Z</time>
      </trkpt>
      <trkpt lat="46.22881" lon="-1.54191">
        <ele>2.6</ele>
        <time>2025-06-29T19:14:51Z</time>
      </trkpt>
      <trkpt lat="46.2288" lon="-1.54192">
        <ele>2.6</ele>
        <time>2025-06-29T19:14:52Z</time>
      </trkpt>
      <trkpt lat="46.22872" lon="-1.54197">
        <ele>3</ele>
        <time>2025-06-29T19:15:00Z</time>
      </trkpt>
      <trkpt lat="46.22865" lon="-1.54206">
        <ele>3.2</ele>
        <time>2025-06-29T19:15:07Z</time>
      </trkpt>
      <trkpt lat="46.2286" lon="-1.54206">
        <ele>3.4</ele>
        <time>2025-06-29T19:15:11Z</time>
      </trkpt>
      <trkpt lat="46.22855" lon="-1.54206">
        <ele>3.6</ele>
        <time>2025-06-29T19:15:15Z</time>
      </trkpt>
      <trkpt lat="46.22852" lon="-1.54208">
        <ele>3.6</ele>
        <time>2025-06-29T19:15:18Z</time>
      </trkpt>
      <trkpt lat="46.22851" lon="-1.54208">
        <ele>3.6</ele>
        <time>2025-06-29T19:15:19Z</time>
      </trkpt>
      <trkpt lat="46.22851" lon="-1.54209">
        <ele>3.6</ele>
        <time>2025-06-29T19:15:20Z</time>
      </trkpt>
      <trkpt lat="46.22849" lon="-1.54212">
        <ele>3.8</ele>
        <time>2025-06-29T19:15:23Z</time>
      </trkpt>
      <trkpt lat="46.22848" lon="-1.54213">
        <ele>4</ele>
        <time>2025-06-29T19:15:24Z</time>
      </trkpt>
      <trkpt lat="46.22846" lon="-1.54215">
        <ele>4.2</ele>
        <time>2025-06-29T19:15:26Z</time>
      </trkpt>
      <trkpt lat="46.22844" lon="-1.54221">
        <ele>3.6</ele>
        <time>2025-06-29T19:15:30Z</time>
      </trkpt>
      <trkpt lat="46.22839" lon="-1.5423">
        <ele>3.2</ele>
        <time>2025-06-29T19:15:36Z</time>
      </trkpt>
      <trkpt lat="46.22837" lon="-1.54232">
        <ele>3.4</ele>
        <time>2025-06-29T19:15:38Z</time>
      </trkpt>
      <trkpt lat="46.22832" lon="-1.54241">
        <ele>3.6</ele>
        <time>2025-06-29T19:15:43Z</time>
      </trkpt>
      <trkpt lat="46.22827" lon="-1.54243">
        <ele>3.6</ele>
        <time>2025-06-29T19:15:46Z</time>
      </trkpt>
      <trkpt lat="46.22823" lon="-1.54246">
        <ele>3.4</ele>
        <time>2025-06-29T19:15:50Z</time>
      </trkpt>
      <trkpt lat="46.22819" lon="-1.54246">
        <ele>3.6</ele>
        <time>2025-06-29T19:15:53Z</time>
      </trkpt>
      <trkpt lat="46.22819" lon="-1.54249">
        <ele>3.6</ele>
        <time>2025-06-29T19:15:54Z</time>
      </trkpt>
      <trkpt lat="46.22816" lon="-1.54253">
        <ele>3.6</ele>
        <time>2025-06-29T19:15:57Z</time>
      </trkpt>
      <trkpt lat="46.22814" lon="-1.54255">
        <ele>3.6</ele>
        <time>2025-06-29T19:15:59Z</time>
      </trkpt>
      <trkpt lat="46.22807" lon="-1.54269">
        <ele>3.6</ele>
        <time>2025-06-29T19:16:08Z</time>
      </trkpt>
      <trkpt lat="46.22801" lon="-1.54287">
        <ele>3.8</ele>
        <time>2025-06-29T19:16:17Z</time>
      </trkpt>
      <trkpt lat="46.22801" lon="-1.54288">
        <ele>3.8</ele>
        <time>2025-06-29T19:16:18Z</time>
      </trkpt>
      <trkpt lat="46.22791" lon="-1.54309">
        <ele>4</ele>
        <time>2025-06-29T19:16:31Z</time>
      </trkpt>
      <trkpt lat="46.22789" lon="-1.54312">
        <ele>4.4</ele>
        <time>2025-06-29T19:16:34Z</time>
      </trkpt>
      <trkpt lat="46.22786" lon="-1.5432">
        <ele>4.6</ele>
        <time>2025-06-29T19:16:38Z</time>
      </trkpt>
      <trkpt lat="46.2278" lon="-1.54331">
        <ele>4.4</ele>
        <time>2025-06-29T19:16:46Z</time>
      </trkpt>
      <trkpt lat="46.22773" lon="-1.54348">
        <ele>4.4</ele>
        <time>2025-06-29T19:16:56Z</time>
      </trkpt>
      <trkpt lat="46.22767" lon="-1.54359">
        <ele>4.6</ele>
        <time>2025-06-29T19:17:04Z</time>
      </trkpt>
      <trkpt lat="46.2276" lon="-1.54376">
        <ele>4.6</ele>
        <time>2025-06-29T19:17:13Z</time>
      </trkpt>
      <trkpt lat="46.22758" lon="-1.54385">
        <ele>4.6</ele>
        <time>2025-06-29T19:17:18Z</time>
      </trkpt>
      <trkpt lat="46.22759" lon="-1.54389">
        <ele>4.4</ele>
        <time>2025-06-29T19:17:20Z</time>
      </trkpt>
      <trkpt lat="46.22761" lon="-1.54403">
        <ele>4.8</ele>
        <time>2025-06-29T19:17:27Z</time>
      </trkpt>
      <trkpt lat="46.22761" lon="-1.54405">
        <ele>4.8</ele>
        <time>2025-06-29T19:17:28Z</time>
      </trkpt>
      <trkpt lat="46.22763" lon="-1.54415">
        <ele>4.8</ele>
        <time>2025-06-29T19:17:33Z</time>
      </trkpt>
      <trkpt lat="46.22764" lon="-1.54417">
        <ele>4.6</ele>
        <time>2025-06-29T19:17:34Z</time>
      </trkpt>
      <trkpt lat="46.22764" lon="-1.54419">
        <ele>4.6</ele>
        <time>2025-06-29T19:17:35Z</time>
      </trkpt>
      <trkpt lat="46.22766" lon="-1.54437">
        <ele>4.8</ele>
        <time>2025-06-29T19:17:44Z</time>
      </trkpt>
      <trkpt lat="46.22766" lon="-1.54451">
        <ele>4.6</ele>
        <time>2025-06-29T19:17:51Z</time>
      </trkpt>
      <trkpt lat="46.22774" lon="-1.5447">
        <ele>5.6</ele>
        <time>2025-06-29T19:18:02Z</time>
      </trkpt>
      <trkpt lat="46.2278" lon="-1.54481">
        <ele>5.6</ele>
        <time>2025-06-29T19:18:09Z</time>
      </trkpt>
      <trkpt lat="46.22779" lon="-1.54479">
        <ele>5.6</ele>
        <time>2025-06-29T19:18:12Z</time>
      </trkpt>
      <trkpt lat="46.22778" lon="-1.54479">
        <ele>5.6</ele>
        <time>2025-06-29T19:18:13Z</time>
      </trkpt>
      <trkpt lat="46.22772" lon="-1.54481">
        <ele>5.6</ele>
        <time>2025-06-29T19:18:17Z</time>
      </trkpt>
      <trkpt lat="46.22768" lon="-1.54495">
        <ele>5.8</ele>
        <time>2025-06-29T19:18:25Z</time>
      </trkpt>
      <trkpt lat="46.22769" lon="-1.54496">
        <ele>5.8</ele>
        <time>2025-06-29T19:18:26Z</time>
      </trkpt>
      <trkpt lat="46.22771" lon="-1.54503">
        <ele>5.8</ele>
        <time>2025-06-29T19:18:30Z</time>
      </trkpt>
      <trkpt lat="46.22773" lon="-1.5451">
        <ele>5.8</ele>
        <time>2025-06-29T19:18:33Z</time>
      </trkpt>
      <trkpt lat="46.22774" lon="-1.54517">
        <ele>5.8</ele>
        <time>2025-06-29T19:18:37Z</time>
      </trkpt>
      <trkpt lat="46.22777" lon="-1.54527">
        <ele>5.8</ele>
        <time>2025-06-29T19:18:42Z</time>
      </trkpt>
      <trkpt lat="46.22778" lon="-1.54532">
        <ele>6</ele>
        <time>2025-06-29T19:18:45Z</time>
      </trkpt>
      <trkpt lat="46.22781" lon="-1.54542">
        <ele>6</ele>
        <time>2025-06-29T19:18:50Z</time>
      </trkpt>
      <trkpt lat="46.22782" lon="-1.54546">
        <ele>6</ele>
        <time>2025-06-29T19:18:52Z</time>
      </trkpt>
      <trkpt lat="46.22783" lon="-1.54548">
        <ele>6</ele>
        <time>2025-06-29T19:18:53Z</time>
      </trkpt>
      <trkpt lat="46.22786" lon="-1.54557">
        <ele>6</ele>
        <time>2025-06-29T19:18:58Z</time>
      </trkpt>
      <trkpt lat="46.22789" lon="-1.54562">
        <ele>6.2</ele>
        <time>2025-06-29T19:19:01Z</time>
      </trkpt>
      <trkpt lat="46.2279" lon="-1.54565">
        <ele>6.2</ele>
        <time>2025-06-29T19:19:03Z</time>
      </trkpt>
      <trkpt lat="46.22792" lon="-1.54576">
        <ele>6</ele>
        <time>2025-06-29T19:19:09Z</time>
      </trkpt>
      <trkpt lat="46.22796" lon="-1.54596">
        <ele>6.2</ele>
        <time>2025-06-29T19:19:19Z</time>
      </trkpt>
      <trkpt lat="46.22797" lon="-1.54603">
        <ele>5.6</ele>
        <time>2025-06-29T19:19:23Z</time>
      </trkpt>
      <trkpt lat="46.22798" lon="-1.54607">
        <ele>5.4</ele>
        <time>2025-06-29T19:19:25Z</time>
      </trkpt>
      <trkpt lat="46.22802" lon="-1.54618">
        <ele>6.4</ele>
        <time>2025-06-29T19:19:31Z</time>
      </trkpt>
      <trkpt lat="46.22803" lon="-1.5462">
        <ele>6.6</ele>
        <time>2025-06-29T19:19:32Z</time>
      </trkpt>
      <trkpt lat="46.22805" lon="-1.5463">
        <ele>6.6</ele>
        <time>2025-06-29T19:19:37Z</time>
      </trkpt>
      <trkpt lat="46.22808" lon="-1.54648">
        <ele>6.8</ele>
        <time>2025-06-29T19:19:47Z</time>
      </trkpt>
      <trkpt lat="46.22809" lon="-1.54652">
        <ele>7</ele>
        <time>2025-06-29T19:19:49Z</time>
      </trkpt>
      <trkpt lat="46.2281" lon="-1.5466">
        <ele>6.8</ele>
        <time>2025-06-29T19:19:53Z</time>
      </trkpt>
      <trkpt lat="46.22809" lon="-1.54665">
        <ele>7</ele>
        <time>2025-06-29T19:19:56Z</time>
      </trkpt>
      <trkpt lat="46.22807" lon="-1.54667">
        <ele>7</ele>
        <time>2025-06-29T19:19:59Z</time>
      </trkpt>
      <trkpt lat="46.22797" lon="-1.54666">
        <ele>6.6</ele>
        <time>2025-06-29T19:20:07Z</time>
      </trkpt>
      <trkpt lat="46.22788" lon="-1.54661">
        <ele>6.6</ele>
        <time>2025-06-29T19:20:14Z</time>
      </trkpt>
      <trkpt lat="46.22785" lon="-1.5466">
        <ele>6.6</ele>
        <time>2025-06-29T19:20:16Z</time>
      </trkpt>
      <trkpt lat="46.22782" lon="-1.54662">
        <ele>6.6</ele>
        <time>2025-06-29T19:20:19Z</time>
      </trkpt>
      <trkpt lat="46.22769" lon="-1.54673">
        <ele>6</ele>
        <time>2025-06-29T19:20:29Z</time>
      </trkpt>
      <trkpt lat="46.2276" lon="-1.54687">
        <ele>6</ele>
        <time>2025-06-29T19:20:39Z</time>
      </trkpt>
      <trkpt lat="46.22757" lon="-1.54692">
        <ele>5.8</ele>
        <time>2025-06-29T19:20:42Z</time>
      </trkpt>
      <trkpt lat="46.22752" lon="-1.54699">
        <ele>5.6</ele>
        <time>2025-06-29T19:20:47Z</time>
      </trkpt>
      <trkpt lat="46.22741" lon="-1.54716">
        <ele>5.8</ele>
        <time>2025-06-29T19:20:58Z</time>
      </trkpt>
      <trkpt lat="46.22738" lon="-1.5472">
        <ele>5.8</ele>
        <time>2025-06-29T19:21:01Z</time>
      </trkpt>
      <trkpt lat="46.22732" lon="-1.54728">
        <ele>5.4</ele>
        <time>2025-06-29T19:21:07Z</time>
      </trkpt>
      <trkpt lat="46.22731" lon="-1.54729">
        <ele>5.6</ele>
        <time>2025-06-29T19:21:08Z</time>
      </trkpt>
      <trkpt lat="46.22726" lon="-1.54737">
        <ele>5.6</ele>
        <time>2025-06-29T19:21:14Z</time>
      </trkpt>
      <trkpt lat="46.22725" lon="-1.54739">
        <ele>5.4</ele>
        <time>2025-06-29T19:21:15Z</time>
      </trkpt>
      <trkpt lat="46.22718" lon="-1.5475">
        <ele>5.4</ele>
        <time>2025-06-29T19:21:23Z</time>
      </trkpt>
      <trkpt lat="46.22717" lon="-1.54753">
        <ele>5.4</ele>
        <time>2025-06-29T19:21:25Z</time>
      </trkpt>
      <trkpt lat="46.22715" lon="-1.54758">
        <ele>5.4</ele>
        <time>2025-06-29T19:21:28Z</time>
      </trkpt>
      <trkpt lat="46.22709" lon="-1.54765">
        <ele>5.4</ele>
        <time>2025-06-29T19:21:33Z</time>
      </trkpt>
      <trkpt lat="46.22698" lon="-1.54769">
        <ele>5.6</ele>
        <time>2025-06-29T19:21:41Z</time>
      </trkpt>
      <trkpt lat="46.22692" lon="-1.54772">
        <ele>5.8</ele>
        <time>2025-06-29T19:21:46Z</time>
      </trkpt>
      <trkpt lat="46.2269" lon="-1.54777">
        <ele>6</ele>
        <time>2025-06-29T19:21:49Z</time>
      </trkpt>
      <trkpt lat="46.2268" lon="-1.54787">
        <ele>6.4</ele>
        <time>2025-06-29T19:21:58Z</time>
      </trkpt>
      <trkpt lat="46.22671" lon="-1.54797">
        <ele>6.6</ele>
        <time>2025-06-29T19:22:07Z</time>
      </trkpt>
      <trkpt lat="46.22665" lon="-1.54803">
        <ele>6.8</ele>
        <time>2025-06-29T19:22:13Z</time>
      </trkpt>
      <trkpt lat="46.2266" lon="-1.54806">
        <ele>7.8</ele>
        <time>2025-06-29T19:22:18Z</time>
      </trkpt>
      <trkpt lat="46.22659" lon="-1.54807">
        <ele>8</ele>
        <time>2025-06-29T19:22:19Z</time>
      </trkpt>
      <trkpt lat="46.22657" lon="-1.5481">
        <ele>8.2</ele>
        <time>2025-06-29T19:22:22Z</time>
      </trkpt>
      <trkpt lat="46.22657" lon="-1.54813">
        <ele>8.6</ele>
        <time>2025-06-29T19:22:24Z</time>
      </trkpt>
      <trkpt lat="46.22658" lon="-1.54815">
        <ele>8.6</ele>
        <time>2025-06-29T19:22:25Z</time>
      </trkpt>
      <trkpt lat="46.22659" lon="-1.54821">
        <ele>8.6</ele>
        <time>2025-06-29T19:22:29Z</time>
      </trkpt>
      <trkpt lat="46.2266" lon="-1.54829">
        <ele>8.6</ele>
        <time>2025-06-29T19:22:33Z</time>
      </trkpt>
      <trkpt lat="46.2266" lon="-1.5484">
        <ele>9</ele>
        <time>2025-06-29T19:22:39Z</time>
      </trkpt>
      <trkpt lat="46.22661" lon="-1.54843">
        <ele>9</ele>
        <time>2025-06-29T19:22:41Z</time>
      </trkpt>
      <trkpt lat="46.22662" lon="-1.54844">
        <ele>9</ele>
        <time>2025-06-29T19:22:42Z</time>
      </trkpt>
      <trkpt lat="46.22663" lon="-1.54847">
        <ele>9</ele>
        <time>2025-06-29T19:22:44Z</time>
      </trkpt>
      <trkpt lat="46.22664" lon="-1.54849">
        <ele>9</ele>
        <time>2025-06-29T19:22:45Z</time>
      </trkpt>
      <trkpt lat="46.22667" lon="-1.54852">
        <ele>8.6</ele>
        <time>2025-06-29T19:22:49Z</time>
      </trkpt>
      <trkpt lat="46.22669" lon="-1.54854">
        <ele>8.6</ele>
        <time>2025-06-29T19:22:51Z</time>
      </trkpt>
      <trkpt lat="46.2267" lon="-1.54855">
        <ele>8.6</ele>
        <time>2025-06-29T19:22:52Z</time>
      </trkpt>
      <trkpt lat="46.22676" lon="-1.54861">
        <ele>8</ele>
        <time>2025-06-29T19:22:58Z</time>
      </trkpt>
      <trkpt lat="46.22677" lon="-1.54863">
        <ele>8</ele>
        <time>2025-06-29T19:22:59Z</time>
      </trkpt>
      <trkpt lat="46.22682" lon="-1.54869">
        <ele>7.8</ele>
        <time>2025-06-29T19:23:04Z</time>
      </trkpt>
      <trkpt lat="46.22682" lon="-1.5487">
        <ele>8</ele>
        <time>2025-06-29T19:23:05Z</time>
      </trkpt>
      <trkpt lat="46.22683" lon="-1.54871">
        <ele>8</ele>
        <time>2025-06-29T19:23:06Z</time>
      </trkpt>
      <trkpt lat="46.22685" lon="-1.54875">
        <ele>8</ele>
        <time>2025-06-29T19:23:09Z</time>
      </trkpt>
      <trkpt lat="46.22687" lon="-1.54878">
        <ele>8</ele>
        <time>2025-06-29T19:23:11Z</time>
      </trkpt>
      <trkpt lat="46.22694" lon="-1.54883">
        <ele>7.6</ele>
        <time>2025-06-29T19:23:17Z</time>
      </trkpt>
      <trkpt lat="46.22694" lon="-1.54884">
        <ele>7.6</ele>
        <time>2025-06-29T19:23:18Z</time>
      </trkpt>
      <trkpt lat="46.22698" lon="-1.54892">
        <ele>7.4</ele>
        <time>2025-06-29T19:23:23Z</time>
      </trkpt>
      <trkpt lat="46.22702" lon="-1.549">
        <ele>7.6</ele>
        <time>2025-06-29T19:23:28Z</time>
      </trkpt>
      <trkpt lat="46.22709" lon="-1.54901">
        <ele>7.8</ele>
        <time>2025-06-29T19:23:33Z</time>
      </trkpt>
      <trkpt lat="46.22711" lon="-1.54898">
        <ele>7.6</ele>
        <time>2025-06-29T19:23:35Z</time>
      </trkpt>
      <trkpt lat="46.22713" lon="-1.54893">
        <ele>7.4</ele>
        <time>2025-06-29T19:23:39Z</time>
      </trkpt>
      <trkpt lat="46.22715" lon="-1.54892">
        <ele>7.2</ele>
        <time>2025-06-29T19:23:41Z</time>
      </trkpt>
      <trkpt lat="46.22719" lon="-1.54891">
        <ele>6.8</ele>
        <time>2025-06-29T19:23:44Z</time>
      </trkpt>
      <trkpt lat="46.2272" lon="-1.54892">
        <ele>6.8</ele>
        <time>2025-06-29T19:23:45Z</time>
      </trkpt>
      <trkpt lat="46.22722" lon="-1.54894">
        <ele>6.8</ele>
        <time>2025-06-29T19:23:48Z</time>
      </trkpt>
      <trkpt lat="46.2273" lon="-1.54904">
        <ele>7</ele>
        <time>2025-06-29T19:23:55Z</time>
      </trkpt>
      <trkpt lat="46.22731" lon="-1.54906">
        <ele>7</ele>
        <time>2025-06-29T19:23:56Z</time>
      </trkpt>
      <trkpt lat="46.22735" lon="-1.5492">
        <ele>7.4</ele>
        <time>2025-06-29T19:24:05Z</time>
      </trkpt>
      <trkpt lat="46.22737" lon="-1.54932">
        <ele>8</ele>
        <time>2025-06-29T19:24:12Z</time>
      </trkpt>
      <trkpt lat="46.22738" lon="-1.54935">
        <ele>8.2</ele>
        <time>2025-06-29T19:24:14Z</time>
      </trkpt>
      <trkpt lat="46.22738" lon="-1.54938">
        <ele>8.2</ele>
        <time>2025-06-29T19:24:16Z</time>
      </trkpt>
      <trkpt lat="46.22735" lon="-1.54943">
        <ele>8.4</ele>
        <time>2025-06-29T19:24:20Z</time>
      </trkpt>
      <trkpt lat="46.22731" lon="-1.5495">
        <ele>9</ele>
        <time>2025-06-29T19:24:25Z</time>
      </trkpt>
      <trkpt lat="46.22727" lon="-1.54956">
        <ele>9.4</ele>
        <time>2025-06-29T19:24:29Z</time>
      </trkpt>
      <trkpt lat="46.22727" lon="-1.54957">
        <ele>9.6</ele>
        <time>2025-06-29T19:24:30Z</time>
      </trkpt>
      <trkpt lat="46.22725" lon="-1.54959">
        <ele>10</ele>
        <time>2025-06-29T19:24:33Z</time>
      </trkpt>
      <trkpt lat="46.22724" lon="-1.5496">
        <ele>10.2</ele>
        <time>2025-06-29T19:24:34Z</time>
      </trkpt>
      <trkpt lat="46.22721" lon="-1.54969">
        <ele>10</ele>
        <time>2025-06-29T19:24:40Z</time>
      </trkpt>
      <trkpt lat="46.22721" lon="-1.54971">
        <ele>10.2</ele>
        <time>2025-06-29T19:24:41Z</time>
      </trkpt>
      <trkpt lat="46.22724" lon="-1.54975">
        <ele>10.2</ele>
        <time>2025-06-29T19:24:44Z</time>
      </trkpt>
      <trkpt lat="46.22727" lon="-1.54981">
        <ele>9.6</ele>
        <time>2025-06-29T19:24:50Z</time>
      </trkpt>
      <trkpt lat="46.22729" lon="-1.54982">
        <ele>9</ele>
        <time>2025-06-29T19:24:52Z</time>
      </trkpt>
      <trkpt lat="46.22731" lon="-1.54985">
        <ele>9</ele>
        <time>2025-06-29T19:24:54Z</time>
      </trkpt>
      <trkpt lat="46.22734" lon="-1.54989">
        <ele>10</ele>
        <time>2025-06-29T19:24:58Z</time>
      </trkpt>
      <trkpt lat="46.22734" lon="-1.5499">
        <ele>10.2</ele>
        <time>2025-06-29T19:25:00Z</time>
      </trkpt>
      <trkpt lat="46.22734" lon="-1.5499">
        <ele>9</ele>
        <time>2025-06-29T19:25:01Z</time>
      </trkpt>
      <trkpt lat="46.22734" lon="-1.5499">
        <ele>9</ele>
        <time>2025-06-29T19:25:03Z</time>
      </trkpt>
      <trkpt lat="46.22734" lon="-1.5499">
        <ele>9.2</ele>
        <time>2025-06-29T19:25:13Z</time>
      </trkpt>
      <trkpt lat="46.22734" lon="-1.5499">
        <ele>9.2</ele>
        <time>2025-06-29T19:25:16Z</time>
      </trkpt>
      <trkpt lat="46.22738" lon="-1.54994">
        <ele>8.4</ele>
        <time>2025-06-29T19:25:26Z</time>
      </trkpt>
      <trkpt lat="46.22743" lon="-1.55001">
        <ele>8.8</ele>
        <time>2025-06-29T19:25:30Z</time>
      </trkpt>
      <trkpt lat="46.22747" lon="-1.55002">
        <ele>8.8</ele>
        <time>2025-06-29T19:25:32Z</time>
      </trkpt>
      <trkpt lat="46.22748" lon="-1.55003">
        <ele>8.8</ele>
        <time>2025-06-29T19:25:33Z</time>
      </trkpt>
      <trkpt lat="46.22748" lon="-1.55004">
        <ele>8.8</ele>
        <time>2025-06-29T19:25:34Z</time>
      </trkpt>
      <trkpt lat="46.22752" lon="-1.55008">
        <ele>8.6</ele>
        <time>2025-06-29T19:25:38Z</time>
      </trkpt>
      <trkpt lat="46.22756" lon="-1.55013">
        <ele>8.6</ele>
        <time>2025-06-29T19:25:43Z</time>
      </trkpt>
      <trkpt lat="46.22757" lon="-1.55014">
        <ele>8.6</ele>
        <time>2025-06-29T19:25:45Z</time>
      </trkpt>
      <trkpt lat="46.22763" lon="-1.55018">
        <ele>8.6</ele>
        <time>2025-06-29T19:25:50Z</time>
      </trkpt>
      <trkpt lat="46.22768" lon="-1.55022">
        <ele>8.6</ele>
        <time>2025-06-29T19:25:55Z</time>
      </trkpt>
      <trkpt lat="46.22776" lon="-1.55031">
        <ele>8.6</ele>
        <time>2025-06-29T19:26:03Z</time>
      </trkpt>
      <trkpt lat="46.22777" lon="-1.55031">
        <ele>8.6</ele>
        <time>2025-06-29T19:26:04Z</time>
      </trkpt>
      <trkpt lat="46.22779" lon="-1.55033">
        <ele>8</ele>
        <time>2025-06-29T19:26:06Z</time>
      </trkpt>
      <trkpt lat="46.22783" lon="-1.55037">
        <ele>7.8</ele>
        <time>2025-06-29T19:26:10Z</time>
      </trkpt>
      <trkpt lat="46.22788" lon="-1.55043">
        <ele>8.2</ele>
        <time>2025-06-29T19:26:16Z</time>
      </trkpt>
      <trkpt lat="46.22789" lon="-1.55043">
        <ele>9</ele>
        <time>2025-06-29T19:26:18Z</time>
      </trkpt>
      <trkpt lat="46.22789" lon="-1.55044">
        <ele>9.2</ele>
        <time>2025-06-29T19:26:19Z</time>
      </trkpt>
      <trkpt lat="46.22793" lon="-1.55049">
        <ele>8.8</ele>
        <time>2025-06-29T19:26:24Z</time>
      </trkpt>
      <trkpt lat="46.22793" lon="-1.55051">
        <ele>9</ele>
        <time>2025-06-29T19:26:26Z</time>
      </trkpt>
      <trkpt lat="46.22793" lon="-1.55054">
        <ele>9.2</ele>
        <time>2025-06-29T19:26:28Z</time>
      </trkpt>
      <trkpt lat="46.22793" lon="-1.55055">
        <ele>9.2</ele>
        <time>2025-06-29T19:26:30Z</time>
      </trkpt>
      <trkpt lat="46.22793" lon="-1.55055">
        <ele>9.2</ele>
        <time>2025-06-29T19:26:35Z</time>
      </trkpt>
      <trkpt lat="46.22794" lon="-1.55054">
        <ele>9.2</ele>
        <time>2025-06-29T19:26:37Z</time>
      </trkpt>
      <trkpt lat="46.22797" lon="-1.55055">
        <ele>8.6</ele>
        <time>2025-06-29T19:26:41Z</time>
      </trkpt>
      <trkpt lat="46.228" lon="-1.55057">
        <ele>8.6</ele>
        <time>2025-06-29T19:26:43Z</time>
      </trkpt>
      <trkpt lat="46.22805" lon="-1.55063">
        <ele>8.2</ele>
        <time>2025-06-29T19:26:48Z</time>
      </trkpt>
      <trkpt lat="46.22807" lon="-1.55065">
        <ele>8</ele>
        <time>2025-06-29T19:26:50Z</time>
      </trkpt>
      <trkpt lat="46.22816" lon="-1.55075">
        <ele>7.4</ele>
        <time>2025-06-29T19:26:59Z</time>
      </trkpt>
      <trkpt lat="46.22823" lon="-1.55085">
        <ele>7.6</ele>
        <time>2025-06-29T19:27:07Z</time>
      </trkpt>
      <trkpt lat="46.22832" lon="-1.55094">
        <ele>7.8</ele>
        <time>2025-06-29T19:27:15Z</time>
      </trkpt>
      <trkpt lat="46.22841" lon="-1.55104">
        <ele>8.4</ele>
        <time>2025-06-29T19:27:24Z</time>
      </trkpt>
      <trkpt lat="46.2285" lon="-1.55113">
        <ele>8.2</ele>
        <time>2025-06-29T19:27:32Z</time>
      </trkpt>
      <trkpt lat="46.22859" lon="-1.55122">
        <ele>8.2</ele>
        <time>2025-06-29T19:27:41Z</time>
      </trkpt>
      <trkpt lat="46.22861" lon="-1.55125">
        <ele>8</ele>
        <time>2025-06-29T19:27:43Z</time>
      </trkpt>
      <trkpt lat="46.22866" lon="-1.55129">
        <ele>7.8</ele>
        <time>2025-06-29T19:27:47Z</time>
      </trkpt>
      <trkpt lat="46.22876" lon="-1.55137">
        <ele>8.8</ele>
        <time>2025-06-29T19:27:56Z</time>
      </trkpt>
      <trkpt lat="46.22877" lon="-1.5514">
        <ele>9</ele>
        <time>2025-06-29T19:27:58Z</time>
      </trkpt>
      <trkpt lat="46.22883" lon="-1.55148">
        <ele>8.4</ele>
        <time>2025-06-29T19:28:04Z</time>
      </trkpt>
      <trkpt lat="46.22884" lon="-1.5515">
        <ele>8.6</ele>
        <time>2025-06-29T19:28:05Z</time>
      </trkpt>
      <trkpt lat="46.22892" lon="-1.5516">
        <ele>9</ele>
        <time>2025-06-29T19:28:13Z</time>
      </trkpt>
      <trkpt lat="46.22893" lon="-1.55162">
        <ele>9.2</ele>
        <time>2025-06-29T19:28:14Z</time>
      </trkpt>
      <trkpt lat="46.22894" lon="-1.55163">
        <ele>9.4</ele>
        <time>2025-06-29T19:28:15Z</time>
      </trkpt>
      <trkpt lat="46.22898" lon="-1.55168">
        <ele>9.6</ele>
        <time>2025-06-29T19:28:19Z</time>
      </trkpt>
      <trkpt lat="46.22909" lon="-1.55181">
        <ele>8.8</ele>
        <time>2025-06-29T19:28:28Z</time>
      </trkpt>
      <trkpt lat="46.22918" lon="-1.55195">
        <ele>8.8</ele>
        <time>2025-06-29T19:28:38Z</time>
      </trkpt>
      <trkpt lat="46.22923" lon="-1.55201">
        <ele>9</ele>
        <time>2025-06-29T19:28:43Z</time>
      </trkpt>
      <trkpt lat="46.22926" lon="-1.55205">
        <ele>8.6</ele>
        <time>2025-06-29T19:28:46Z</time>
      </trkpt>
      <trkpt lat="46.22937" lon="-1.55216">
        <ele>8.8</ele>
        <time>2025-06-29T19:28:55Z</time>
      </trkpt>
      <trkpt lat="46.22946" lon="-1.55226">
        <ele>9.4</ele>
        <time>2025-06-29T19:29:03Z</time>
      </trkpt>
      <trkpt lat="46.22957" lon="-1.5524">
        <ele>9.4</ele>
        <time>2025-06-29T19:29:14Z</time>
      </trkpt>
      <trkpt lat="46.22968" lon="-1.55251">
        <ele>9.2</ele>
        <time>2025-06-29T19:29:24Z</time>
      </trkpt>
      <trkpt lat="46.22974" lon="-1.55262">
        <ele>8.8</ele>
        <time>2025-06-29T19:29:31Z</time>
      </trkpt>
      <trkpt lat="46.22983" lon="-1.55272">
        <ele>8.8</ele>
        <time>2025-06-29T19:29:40Z</time>
      </trkpt>
      <trkpt lat="46.22991" lon="-1.55283">
        <ele>9.2</ele>
        <time>2025-06-29T19:29:49Z</time>
      </trkpt>
      <trkpt lat="46.23003" lon="-1.55296">
        <ele>9.6</ele>
        <time>2025-06-29T19:30:00Z</time>
      </trkpt>
      <trkpt lat="46.23011" lon="-1.55308">
        <ele>9.6</ele>
        <time>2025-06-29T19:30:09Z</time>
      </trkpt>
      <trkpt lat="46.23014" lon="-1.55311">
        <ele>9.4</ele>
        <time>2025-06-29T19:30:11Z</time>
      </trkpt>
      <trkpt lat="46.23021" lon="-1.55317">
        <ele>8.8</ele>
        <time>2025-06-29T19:30:17Z</time>
      </trkpt>
      <trkpt lat="46.23025" lon="-1.55322">
        <ele>8.6</ele>
        <time>2025-06-29T19:30:21Z</time>
      </trkpt>
      <trkpt lat="46.23028" lon="-1.55326">
        <ele>8.6</ele>
        <time>2025-06-29T19:30:24Z</time>
      </trkpt>
      <trkpt lat="46.23031" lon="-1.55329">
        <ele>8.8</ele>
        <time>2025-06-29T19:30:27Z</time>
      </trkpt>
      <trkpt lat="46.23034" lon="-1.55333">
        <ele>8.8</ele>
        <time>2025-06-29T19:30:30Z</time>
      </trkpt>
      <trkpt lat="46.23036" lon="-1.55338">
        <ele>9.4</ele>
        <time>2025-06-29T19:30:33Z</time>
      </trkpt>
      <trkpt lat="46.23037" lon="-1.5534">
        <ele>9.4</ele>
        <time>2025-06-29T19:30:34Z</time>
      </trkpt>
      <trkpt lat="46.23043" lon="-1.55346">
        <ele>8.2</ele>
        <time>2025-06-29T19:30:39Z</time>
      </trkpt>
      <trkpt lat="46.2305" lon="-1.55355">
        <ele>8.8</ele>
        <time>2025-06-29T19:30:46Z</time>
      </trkpt>
      <trkpt lat="46.23059" lon="-1.55365">
        <ele>8.2</ele>
        <time>2025-06-29T19:30:56Z</time>
      </trkpt>
      <trkpt lat="46.23061" lon="-1.55366">
        <ele>8.2</ele>
        <time>2025-06-29T19:30:57Z</time>
      </trkpt>
      <trkpt lat="46.23066" lon="-1.55374">
        <ele>8.4</ele>
        <time>2025-06-29T19:31:04Z</time>
      </trkpt>
      <trkpt lat="46.23066" lon="-1.55374">
        <ele>8.8</ele>
        <time>2025-06-29T19:31:06Z</time>
      </trkpt>
      <trkpt lat="46.23073" lon="-1.55383">
        <ele>8.8</ele>
        <time>2025-06-29T19:31:13Z</time>
      </trkpt>
      <trkpt lat="46.23075" lon="-1.55386">
        <ele>9</ele>
        <time>2025-06-29T19:31:15Z</time>
      </trkpt>
      <trkpt lat="46.23075" lon="-1.55389">
        <ele>9</ele>
        <time>2025-06-29T19:31:20Z</time>
      </trkpt>
      <trkpt lat="46.23078" lon="-1.55392">
        <ele>8.8</ele>
        <time>2025-06-29T19:31:27Z</time>
      </trkpt>
      <trkpt lat="46.23088" lon="-1.55401">
        <ele>8.6</ele>
        <time>2025-06-29T19:31:35Z</time>
      </trkpt>
      <trkpt lat="46.23098" lon="-1.55417">
        <ele>8.2</ele>
        <time>2025-06-29T19:31:46Z</time>
      </trkpt>
      <trkpt lat="46.23107" lon="-1.55429">
        <ele>8.4</ele>
        <time>2025-06-29T19:31:55Z</time>
      </trkpt>
      <trkpt lat="46.23117" lon="-1.55444">
        <ele>8.4</ele>
        <time>2025-06-29T19:32:06Z</time>
      </trkpt>
      <trkpt lat="46.23126" lon="-1.55455">
        <ele>8.4</ele>
        <time>2025-06-29T19:32:16Z</time>
      </trkpt>
      <trkpt lat="46.23138" lon="-1.55467">
        <ele>8.2</ele>
        <time>2025-06-29T19:32:27Z</time>
      </trkpt>
      <trkpt lat="46.23147" lon="-1.5548">
        <ele>8.4</ele>
        <time>2025-06-29T19:32:37Z</time>
      </trkpt>
      <trkpt lat="46.23158" lon="-1.55494">
        <ele>8.4</ele>
        <time>2025-06-29T19:32:48Z</time>
      </trkpt>
      <trkpt lat="46.23169" lon="-1.55511">
        <ele>9</ele>
        <time>2025-06-29T19:32:59Z</time>
      </trkpt>
      <trkpt lat="46.2317" lon="-1.55512">
        <ele>9</ele>
        <time>2025-06-29T19:33:00Z</time>
      </trkpt>
      <trkpt lat="46.23176" lon="-1.5552">
        <ele>8.6</ele>
        <time>2025-06-29T19:33:06Z</time>
      </trkpt>
      <trkpt lat="46.23188" lon="-1.55535">
        <ele>8</ele>
        <time>2025-06-29T19:33:18Z</time>
      </trkpt>
      <trkpt lat="46.23196" lon="-1.55546">
        <ele>8.6</ele>
        <time>2025-06-29T19:33:26Z</time>
      </trkpt>
      <trkpt lat="46.23198" lon="-1.5555">
        <ele>8.2</ele>
        <time>2025-06-29T19:33:29Z</time>
      </trkpt>
      <trkpt lat="46.23199" lon="-1.55552">
        <ele>8.2</ele>
        <time>2025-06-29T19:33:30Z</time>
      </trkpt>
      <trkpt lat="46.23203" lon="-1.55559">
        <ele>8.2</ele>
        <time>2025-06-29T19:33:35Z</time>
      </trkpt>
      <trkpt lat="46.2321" lon="-1.55573">
        <ele>8.2</ele>
        <time>2025-06-29T19:33:44Z</time>
      </trkpt>
      <trkpt lat="46.23211" lon="-1.55577">
        <ele>8.2</ele>
        <time>2025-06-29T19:33:47Z</time>
      </trkpt>
      <trkpt lat="46.23211" lon="-1.55577">
        <ele>8.4</ele>
        <time>2025-06-29T19:33:50Z</time>
      </trkpt>
      <trkpt lat="46.23214" lon="-1.55581">
        <ele>8.2</ele>
        <time>2025-06-29T19:33:57Z</time>
      </trkpt>
      <trkpt lat="46.23217" lon="-1.55587">
        <ele>7.8</ele>
        <time>2025-06-29T19:34:02Z</time>
      </trkpt>
      <trkpt lat="46.23218" lon="-1.55592">
        <ele>7.8</ele>
        <time>2025-06-29T19:34:06Z</time>
      </trkpt>
      <trkpt lat="46.23223" lon="-1.55601">
        <ele>8</ele>
        <time>2025-06-29T19:34:13Z</time>
      </trkpt>
      <trkpt lat="46.2323" lon="-1.5561">
        <ele>7.8</ele>
        <time>2025-06-29T19:34:21Z</time>
      </trkpt>
      <trkpt lat="46.23233" lon="-1.55621">
        <ele>8.2</ele>
        <time>2025-06-29T19:34:29Z</time>
      </trkpt>
      <trkpt lat="46.23237" lon="-1.55633">
        <ele>8.4</ele>
        <time>2025-06-29T19:34:37Z</time>
      </trkpt>
      <trkpt lat="46.23238" lon="-1.55635">
        <ele>8.4</ele>
        <time>2025-06-29T19:34:39Z</time>
      </trkpt>
      <trkpt lat="46.23239" lon="-1.55636">
        <ele>8.2</ele>
        <time>2025-06-29T19:34:40Z</time>
      </trkpt>
      <trkpt lat="46.23241" lon="-1.55639">
        <ele>8.4</ele>
        <time>2025-06-29T19:34:44Z</time>
      </trkpt>
      <trkpt lat="46.23241" lon="-1.55642">
        <ele>8.2</ele>
        <time>2025-06-29T19:34:51Z</time>
      </trkpt>
      <trkpt lat="46.23243" lon="-1.55645">
        <ele>8.2</ele>
        <time>2025-06-29T19:35:08Z</time>
      </trkpt>
      <trkpt lat="46.23253" lon="-1.55664">
        <ele>7.8</ele>
        <time>2025-06-29T19:35:19Z</time>
      </trkpt>
      <trkpt lat="46.23261" lon="-1.55674">
        <ele>7.8</ele>
        <time>2025-06-29T19:35:27Z</time>
      </trkpt>
      <trkpt lat="46.23262" lon="-1.55675">
        <ele>7.8</ele>
        <time>2025-06-29T19:35:28Z</time>
      </trkpt>
      <trkpt lat="46.23269" lon="-1.55688">
        <ele>7.8</ele>
        <time>2025-06-29T19:35:37Z</time>
      </trkpt>
      <trkpt lat="46.2327" lon="-1.55691">
        <ele>7.8</ele>
        <time>2025-06-29T19:35:39Z</time>
      </trkpt>
      <trkpt lat="46.23274" lon="-1.55697">
        <ele>8</ele>
        <time>2025-06-29T19:35:44Z</time>
      </trkpt>
      <trkpt lat="46.23279" lon="-1.55706">
        <ele>8.2</ele>
        <time>2025-06-29T19:35:50Z</time>
      </trkpt>
      <trkpt lat="46.23279" lon="-1.55707">
        <ele>8.2</ele>
        <time>2025-06-29T19:35:52Z</time>
      </trkpt>
      <trkpt lat="46.2328" lon="-1.55708">
        <ele>8.4</ele>
        <time>2025-06-29T19:35:59Z</time>
      </trkpt>
      <trkpt lat="46.2328" lon="-1.55709">
        <ele>7.6</ele>
        <time>2025-06-29T19:36:08Z</time>
      </trkpt>
      <trkpt lat="46.23285" lon="-1.55716">
        <ele>7.4</ele>
        <time>2025-06-29T19:36:14Z</time>
      </trkpt>
      <trkpt lat="46.23287" lon="-1.55718">
        <ele>7.6</ele>
        <time>2025-06-29T19:36:16Z</time>
      </trkpt>
      <trkpt lat="46.23293" lon="-1.55723">
        <ele>7.8</ele>
        <time>2025-06-29T19:36:22Z</time>
      </trkpt>
      <trkpt lat="46.23297" lon="-1.55726">
        <ele>7.8</ele>
        <time>2025-06-29T19:36:26Z</time>
      </trkpt>
      <trkpt lat="46.23299" lon="-1.55729">
        <ele>8</ele>
        <time>2025-06-29T19:36:29Z</time>
      </trkpt>
      <trkpt lat="46.233" lon="-1.5573">
        <ele>8</ele>
        <time>2025-06-29T19:36:30Z</time>
      </trkpt>
      <trkpt lat="46.23302" lon="-1.55734">
        <ele>7.8</ele>
        <time>2025-06-29T19:36:33Z</time>
      </trkpt>
      <trkpt lat="46.23306" lon="-1.5574">
        <ele>7.6</ele>
        <time>2025-06-29T19:36:37Z</time>
      </trkpt>
      <trkpt lat="46.23314" lon="-1.55749">
        <ele>7.2</ele>
        <time>2025-06-29T19:36:45Z</time>
      </trkpt>
      <trkpt lat="46.23316" lon="-1.5575">
        <ele>7.2</ele>
        <time>2025-06-29T19:36:47Z</time>
      </trkpt>
      <trkpt lat="46.23317" lon="-1.55751">
        <ele>7.2</ele>
        <time>2025-06-29T19:36:49Z</time>
      </trkpt>
      <trkpt lat="46.2332" lon="-1.55754">
        <ele>7.4</ele>
        <time>2025-06-29T19:36:52Z</time>
      </trkpt>
      <trkpt lat="46.23322" lon="-1.55757">
        <ele>7.6</ele>
        <time>2025-06-29T19:36:54Z</time>
      </trkpt>
      <trkpt lat="46.2333" lon="-1.55765">
        <ele>8.2</ele>
        <time>2025-06-29T19:37:03Z</time>
      </trkpt>
      <trkpt lat="46.2333" lon="-1.55765">
        <ele>8.2</ele>
        <time>2025-06-29T19:37:07Z</time>
      </trkpt>
      <trkpt lat="46.2333" lon="-1.55765">
        <ele>8.2</ele>
        <time>2025-06-29T19:37:09Z</time>
      </trkpt>
      <trkpt lat="46.2333" lon="-1.55765">
        <ele>8</ele>
        <time>2025-06-29T19:37:18Z</time>
      </trkpt>
      <trkpt lat="46.2333" lon="-1.55765">
        <ele>8</ele>
        <time>2025-06-29T19:37:26Z</time>
      </trkpt>
      <trkpt lat="46.23333" lon="-1.55768">
        <ele>7.4</ele>
        <time>2025-06-29T19:37:35Z</time>
      </trkpt>
      <trkpt lat="46.23335" lon="-1.55769">
        <ele>7.4</ele>
        <time>2025-06-29T19:37:36Z</time>
      </trkpt>
      <trkpt lat="46.23338" lon="-1.55771">
        <ele>7.2</ele>
        <time>2025-06-29T19:37:38Z</time>
      </trkpt>
      <trkpt lat="46.23346" lon="-1.55776">
        <ele>7.2</ele>
        <time>2025-06-29T19:37:44Z</time>
      </trkpt>
      <trkpt lat="46.23358" lon="-1.55786">
        <ele>7.6</ele>
        <time>2025-06-29T19:37:55Z</time>
      </trkpt>
      <trkpt lat="46.23365" lon="-1.55799">
        <ele>7.6</ele>
        <time>2025-06-29T19:38:03Z</time>
      </trkpt>
      <trkpt lat="46.23368" lon="-1.55804">
        <ele>7.4</ele>
        <time>2025-06-29T19:38:07Z</time>
      </trkpt>
      <trkpt lat="46.2337" lon="-1.55806">
        <ele>7</ele>
        <time>2025-06-29T19:38:09Z</time>
      </trkpt>
      <trkpt lat="46.23373" lon="-1.55811">
        <ele>6</ele>
        <time>2025-06-29T19:38:13Z</time>
      </trkpt>
      <trkpt lat="46.2338" lon="-1.55816">
        <ele>5</ele>
        <time>2025-06-29T19:38:19Z</time>
      </trkpt>
      <trkpt lat="46.23385" lon="-1.55816">
        <ele>4.8</ele>
        <time>2025-06-29T19:38:23Z</time>
      </trkpt>
      <trkpt lat="46.23387" lon="-1.55817">
        <ele>5.8</ele>
        <time>2025-06-29T19:38:29Z</time>
      </trkpt>
      <trkpt lat="46.23387" lon="-1.55818">
        <ele>6</ele>
        <time>2025-06-29T19:38:38Z</time>
      </trkpt>
      <trkpt lat="46.23387" lon="-1.55818">
        <ele>6</ele>
        <time>2025-06-29T19:38:41Z</time>
      </trkpt>
      <trkpt lat="46.23387" lon="-1.55818">
        <ele>6.2</ele>
        <time>2025-06-29T19:38:42Z</time>
      </trkpt>
      <trkpt lat="46.23389" lon="-1.55819">
        <ele>5.4</ele>
        <time>2025-06-29T19:38:57Z</time>
      </trkpt>
      <trkpt lat="46.23389" lon="-1.55821">
        <ele>5.4</ele>
        <time>2025-06-29T19:38:59Z</time>
      </trkpt>
      <trkpt lat="46.23391" lon="-1.55822">
        <ele>5.4</ele>
        <time>2025-06-29T19:39:02Z</time>
      </trkpt>
      <trkpt lat="46.23379" lon="-1.5582">
        <ele>4.8</ele>
        <time>2025-06-29T19:40:15Z</time>
      </trkpt>
      <trkpt lat="46.23378" lon="-1.55819">
        <ele>4.6</ele>
        <time>2025-06-29T19:40:17Z</time>
      </trkpt>
      <trkpt lat="46.23377" lon="-1.55815">
        <ele>5.2</ele>
        <time>2025-06-29T19:40:20Z</time>
      </trkpt>
      <trkpt lat="46.23373" lon="-1.55812">
        <ele>5</ele>
        <time>2025-06-29T19:40:25Z</time>
      </trkpt>
      <trkpt lat="46.23368" lon="-1.55805">
        <ele>5.8</ele>
        <time>2025-06-29T19:40:33Z</time>
      </trkpt>
      <trkpt lat="46.23365" lon="-1.55801">
        <ele>6</ele>
        <time>2025-06-29T19:40:37Z</time>
      </trkpt>
      <trkpt lat="46.23364" lon="-1.55794">
        <ele>6.4</ele>
        <time>2025-06-29T19:40:43Z</time>
      </trkpt>
      <trkpt lat="46.23366" lon="-1.55794">
        <ele>6.4</ele>
        <time>2025-06-29T19:40:44Z</time>
      </trkpt>
      <trkpt lat="46.2337" lon="-1.55796">
        <ele>6.8</ele>
        <time>2025-06-29T19:40:47Z</time>
      </trkpt>
      <trkpt lat="46.23375" lon="-1.55799">
        <ele>8</ele>
        <time>2025-06-29T19:40:51Z</time>
      </trkpt>
      <trkpt lat="46.23378" lon="-1.558">
        <ele>6.8</ele>
        <time>2025-06-29T19:40:54Z</time>
      </trkpt>
      <trkpt lat="46.23383" lon="-1.55803">
        <ele>5.2</ele>
        <time>2025-06-29T19:40:58Z</time>
      </trkpt>
      <trkpt lat="46.23386" lon="-1.55805">
        <ele>5.2</ele>
        <time>2025-06-29T19:41:01Z</time>
      </trkpt>
      <trkpt lat="46.23387" lon="-1.55806">
        <ele>5.4</ele>
        <time>2025-06-29T19:41:02Z</time>
      </trkpt>
      <trkpt lat="46.23394" lon="-1.55812">
        <ele>5.8</ele>
        <time>2025-06-29T19:41:07Z</time>
      </trkpt>
      <trkpt lat="46.23398" lon="-1.55816">
        <ele>6.4</ele>
        <time>2025-06-29T19:41:11Z</time>
      </trkpt>
      <trkpt lat="46.23403" lon="-1.55821">
        <ele>6.6</ele>
        <time>2025-06-29T19:41:15Z</time>
      </trkpt>
      <trkpt lat="46.23413" lon="-1.55827">
        <ele>6.8</ele>
        <time>2025-06-29T19:41:23Z</time>
      </trkpt>
      <trkpt lat="46.23414" lon="-1.55829">
        <ele>6.8</ele>
        <time>2025-06-29T19:41:24Z</time>
      </trkpt>
      <trkpt lat="46.23425" lon="-1.5584">
        <ele>7</ele>
        <time>2025-06-29T19:41:34Z</time>
      </trkpt>
      <trkpt lat="46.23436" lon="-1.5585">
        <ele>6.8</ele>
        <time>2025-06-29T19:41:43Z</time>
      </trkpt>
      <trkpt lat="46.23447" lon="-1.55858">
        <ele>6.6</ele>
        <time>2025-06-29T19:41:51Z</time>
      </trkpt>
      <trkpt lat="46.23458" lon="-1.55869">
        <ele>6.4</ele>
        <time>2025-06-29T19:42:00Z</time>
      </trkpt>
      <trkpt lat="46.2346" lon="-1.5587">
        <ele>6.4</ele>
        <time>2025-06-29T19:42:01Z</time>
      </trkpt>
      <trkpt lat="46.23469" lon="-1.55879">
        <ele>6</ele>
        <time>2025-06-29T19:42:09Z</time>
      </trkpt>
      <trkpt lat="46.23472" lon="-1.55881">
        <ele>6</ele>
        <time>2025-06-29T19:42:11Z</time>
      </trkpt>
      <trkpt lat="46.23474" lon="-1.55882">
        <ele>6.2</ele>
        <time>2025-06-29T19:42:13Z</time>
      </trkpt>
      <trkpt lat="46.23484" lon="-1.5589">
        <ele>6.6</ele>
        <time>2025-06-29T19:42:20Z</time>
      </trkpt>
      <trkpt lat="46.23496" lon="-1.559">
        <ele>6</ele>
        <time>2025-06-29T19:42:31Z</time>
      </trkpt>
      <trkpt lat="46.23507" lon="-1.55908">
        <ele>6.6</ele>
        <time>2025-06-29T19:42:39Z</time>
      </trkpt>
      <trkpt lat="46.23521" lon="-1.55921">
        <ele>6.6</ele>
        <time>2025-06-29T19:42:50Z</time>
      </trkpt>
      <trkpt lat="46.23522" lon="-1.55923">
        <ele>6.6</ele>
        <time>2025-06-29T19:42:52Z</time>
      </trkpt>
      <trkpt lat="46.23536" lon="-1.55933">
        <ele>6.4</ele>
        <time>2025-06-29T19:43:02Z</time>
      </trkpt>
      <trkpt lat="46.23543" lon="-1.55937">
        <ele>6.8</ele>
        <time>2025-06-29T19:43:07Z</time>
      </trkpt>
      <trkpt lat="46.23546" lon="-1.5594">
        <ele>6.8</ele>
        <time>2025-06-29T19:43:10Z</time>
      </trkpt>
      <trkpt lat="46.23559" lon="-1.55953">
        <ele>6.8</ele>
        <time>2025-06-29T19:43:21Z</time>
      </trkpt>
      <trkpt lat="46.23567" lon="-1.55961">
        <ele>7.4</ele>
        <time>2025-06-29T19:43:28Z</time>
      </trkpt>
      <trkpt lat="46.23569" lon="-1.55963">
        <ele>7.4</ele>
        <time>2025-06-29T19:43:30Z</time>
      </trkpt>
      <trkpt lat="46.23583" lon="-1.55976">
        <ele>8</ele>
        <time>2025-06-29T19:43:42Z</time>
      </trkpt>
      <trkpt lat="46.23586" lon="-1.55978">
        <ele>8.4</ele>
        <time>2025-06-29T19:43:45Z</time>
      </trkpt>
      <trkpt lat="46.23589" lon="-1.55981">
        <ele>8.4</ele>
        <time>2025-06-29T19:43:47Z</time>
      </trkpt>
      <trkpt lat="46.23593" lon="-1.55984">
        <ele>8.4</ele>
        <time>2025-06-29T19:43:50Z</time>
      </trkpt>
      <trkpt lat="46.23603" lon="-1.55992">
        <ele>8</ele>
        <time>2025-06-29T19:43:58Z</time>
      </trkpt>
      <trkpt lat="46.23613" lon="-1.56">
        <ele>8.2</ele>
        <time>2025-06-29T19:44:06Z</time>
      </trkpt>
      <trkpt lat="46.23629" lon="-1.56013">
        <ele>8.2</ele>
        <time>2025-06-29T19:44:19Z</time>
      </trkpt>
      <trkpt lat="46.23644" lon="-1.56026">
        <ele>8.4</ele>
        <time>2025-06-29T19:44:32Z</time>
      </trkpt>
      <trkpt lat="46.23654" lon="-1.56035">
        <ele>7.8</ele>
        <time>2025-06-29T19:44:40Z</time>
      </trkpt>
      <trkpt lat="46.23661" lon="-1.56044">
        <ele>8.4</ele>
        <time>2025-06-29T19:44:47Z</time>
      </trkpt>
      <trkpt lat="46.23666" lon="-1.56048">
        <ele>8.4</ele>
        <time>2025-06-29T19:44:51Z</time>
      </trkpt>
      <trkpt lat="46.23677" lon="-1.56055">
        <ele>8.2</ele>
        <time>2025-06-29T19:45:00Z</time>
      </trkpt>
      <trkpt lat="46.23687" lon="-1.56063">
        <ele>8</ele>
        <time>2025-06-29T19:45:08Z</time>
      </trkpt>
      <trkpt lat="46.23698" lon="-1.56071">
        <ele>8</ele>
        <time>2025-06-29T19:45:17Z</time>
      </trkpt>
      <trkpt lat="46.23705" lon="-1.56075">
        <ele>8.4</ele>
        <time>2025-06-29T19:45:22Z</time>
      </trkpt>
      <trkpt lat="46.23714" lon="-1.56081">
        <ele>8.2</ele>
        <time>2025-06-29T19:45:29Z</time>
      </trkpt>
      <trkpt lat="46.23728" lon="-1.5609">
        <ele>7.8</ele>
        <time>2025-06-29T19:45:40Z</time>
      </trkpt>
      <trkpt lat="46.23738" lon="-1.56096">
        <ele>8.2</ele>
        <time>2025-06-29T19:45:48Z</time>
      </trkpt>
      <trkpt lat="46.23743" lon="-1.56099">
        <ele>8.2</ele>
        <time>2025-06-29T19:45:52Z</time>
      </trkpt>
      <trkpt lat="46.23757" lon="-1.56105">
        <ele>7.8</ele>
        <time>2025-06-29T19:46:02Z</time>
      </trkpt>
      <trkpt lat="46.23759" lon="-1.56107">
        <ele>7.8</ele>
        <time>2025-06-29T19:46:04Z</time>
      </trkpt>
      <trkpt lat="46.23767" lon="-1.5611">
        <ele>8.2</ele>
        <time>2025-06-29T19:46:10Z</time>
      </trkpt>
      <trkpt lat="46.23779" lon="-1.56115">
        <ele>8</ele>
        <time>2025-06-29T19:46:19Z</time>
      </trkpt>
      <trkpt lat="46.23787" lon="-1.56118">
        <ele>8</ele>
        <time>2025-06-29T19:46:25Z</time>
      </trkpt>
      <trkpt lat="46.23799" lon="-1.56121">
        <ele>8.2</ele>
        <time>2025-06-29T19:46:33Z</time>
      </trkpt>
      <trkpt lat="46.2381" lon="-1.56122">
        <ele>8.2</ele>
        <time>2025-06-29T19:46:41Z</time>
      </trkpt>
      <trkpt lat="46.23812" lon="-1.56123">
        <ele>8.2</ele>
        <time>2025-06-29T19:46:42Z</time>
      </trkpt>
      <trkpt lat="46.23822" lon="-1.56127">
        <ele>8</ele>
        <time>2025-06-29T19:46:50Z</time>
      </trkpt>
      <trkpt lat="46.2383" lon="-1.5613">
        <ele>7.6</ele>
        <time>2025-06-29T19:46:56Z</time>
      </trkpt>
      <trkpt lat="46.23834" lon="-1.5613">
        <ele>7.6</ele>
        <time>2025-06-29T19:46:59Z</time>
      </trkpt>
      <trkpt lat="46.23837" lon="-1.56131">
        <ele>7.4</ele>
        <time>2025-06-29T19:47:01Z</time>
      </trkpt>
      <trkpt lat="46.23848" lon="-1.56134">
        <ele>7</ele>
        <time>2025-06-29T19:47:10Z</time>
      </trkpt>
      <trkpt lat="46.23865" lon="-1.56137">
        <ele>7.4</ele>
        <time>2025-06-29T19:47:23Z</time>
      </trkpt>
      <trkpt lat="46.2388" lon="-1.56138">
        <ele>7.8</ele>
        <time>2025-06-29T19:47:33Z</time>
      </trkpt>
      <trkpt lat="46.23881" lon="-1.56139">
        <ele>7.8</ele>
        <time>2025-06-29T19:47:34Z</time>
      </trkpt>
      <trkpt lat="46.23894" lon="-1.56143">
        <ele>7.4</ele>
        <time>2025-06-29T19:47:43Z</time>
      </trkpt>
      <trkpt lat="46.23901" lon="-1.56145">
        <ele>7.4</ele>
        <time>2025-06-29T19:47:48Z</time>
      </trkpt>
      <trkpt lat="46.23907" lon="-1.56146">
        <ele>7</ele>
        <time>2025-06-29T19:47:52Z</time>
      </trkpt>
      <trkpt lat="46.23916" lon="-1.56146">
        <ele>7</ele>
        <time>2025-06-29T19:48:00Z</time>
      </trkpt>
      <trkpt lat="46.23929" lon="-1.56147">
        <ele>7</ele>
        <time>2025-06-29T19:48:10Z</time>
      </trkpt>
      <trkpt lat="46.23936" lon="-1.56148">
        <ele>7.2</ele>
        <time>2025-06-29T19:48:15Z</time>
      </trkpt>
      <trkpt lat="46.23945" lon="-1.56149">
        <ele>7</ele>
        <time>2025-06-29T19:48:21Z</time>
      </trkpt>
      <trkpt lat="46.23954" lon="-1.56149">
        <ele>7.2</ele>
        <time>2025-06-29T19:48:29Z</time>
      </trkpt>
      <trkpt lat="46.23957" lon="-1.56149">
        <ele>7.2</ele>
        <time>2025-06-29T19:48:36Z</time>
      </trkpt>
      <trkpt lat="46.23957" lon="-1.56148">
        <ele>6.8</ele>
        <time>2025-06-29T19:48:43Z</time>
      </trkpt>
      <trkpt lat="46.23957" lon="-1.56148">
        <ele>6.8</ele>
        <time>2025-06-29T19:48:44Z</time>
      </trkpt>
      <trkpt lat="46.23957" lon="-1.56148">
        <ele>6.6</ele>
        <time>2025-06-29T19:48:57Z</time>
      </trkpt>
      <trkpt lat="46.23957" lon="-1.56148">
        <ele>6.6</ele>
        <time>2025-06-29T19:48:59Z</time>
      </trkpt>
      <trkpt lat="46.23963" lon="-1.56149">
        <ele>6.8</ele>
        <time>2025-06-29T19:49:03Z</time>
      </trkpt>
      <trkpt lat="46.23979" lon="-1.56152">
        <ele>7.2</ele>
        <time>2025-06-29T19:49:14Z</time>
      </trkpt>
      <trkpt lat="46.23994" lon="-1.56155">
        <ele>6.6</ele>
        <time>2025-06-29T19:49:25Z</time>
      </trkpt>
      <trkpt lat="46.24004" lon="-1.56158">
        <ele>7</ele>
        <time>2025-06-29T19:49:33Z</time>
      </trkpt>
      <trkpt lat="46.24019" lon="-1.56163">
        <ele>6.8</ele>
        <time>2025-06-29T19:49:44Z</time>
      </trkpt>
      <trkpt lat="46.24032" lon="-1.56168">
        <ele>7.2</ele>
        <time>2025-06-29T19:49:54Z</time>
      </trkpt>
      <trkpt lat="46.24034" lon="-1.56169">
        <ele>7.2</ele>
        <time>2025-06-29T19:49:55Z</time>
      </trkpt>
      <trkpt lat="46.24036" lon="-1.5617">
        <ele>7.2</ele>
        <time>2025-06-29T19:49:57Z</time>
      </trkpt>
      <trkpt lat="46.24046" lon="-1.56172">
        <ele>6.6</ele>
        <time>2025-06-29T19:50:04Z</time>
      </trkpt>
      <trkpt lat="46.24055" lon="-1.56175">
        <ele>6.6</ele>
        <time>2025-06-29T19:50:12Z</time>
      </trkpt>
      <trkpt lat="46.24068" lon="-1.56181">
        <ele>7.4</ele>
        <time>2025-06-29T19:50:21Z</time>
      </trkpt>
      <trkpt lat="46.24075" lon="-1.56184">
        <ele>6.2</ele>
        <time>2025-06-29T19:50:26Z</time>
      </trkpt>
      <trkpt lat="46.24079" lon="-1.56186">
        <ele>6.2</ele>
        <time>2025-06-29T19:50:29Z</time>
      </trkpt>
      <trkpt lat="46.24091" lon="-1.56192">
        <ele>6.2</ele>
        <time>2025-06-29T19:50:38Z</time>
      </trkpt>
      <trkpt lat="46.24104" lon="-1.56194">
        <ele>5.4</ele>
        <time>2025-06-29T19:50:48Z</time>
      </trkpt>
      <trkpt lat="46.24105" lon="-1.56194">
        <ele>5.4</ele>
        <time>2025-06-29T19:50:49Z</time>
      </trkpt>
      <trkpt lat="46.24109" lon="-1.56167">
        <ele>5.8</ele>
        <time>2025-06-29T19:51:03Z</time>
      </trkpt>
      <trkpt lat="46.24116" lon="-1.56158">
        <ele>5.6</ele>
        <time>2025-06-29T19:51:11Z</time>
      </trkpt>
      <trkpt lat="46.24121" lon="-1.56153">
        <ele>5.6</ele>
        <time>2025-06-29T19:51:16Z</time>
      </trkpt>
      <trkpt lat="46.24127" lon="-1.56153">
        <ele>5.6</ele>
        <time>2025-06-29T19:51:20Z</time>
      </trkpt>
      <trkpt lat="46.24144" lon="-1.56151">
        <ele>5.4</ele>
        <time>2025-06-29T19:51:31Z</time>
      </trkpt>
      <trkpt lat="46.24158" lon="-1.56148">
        <ele>5</ele>
        <time>2025-06-29T19:51:40Z</time>
      </trkpt>
      <trkpt lat="46.24159" lon="-1.56148">
        <ele>5</ele>
        <time>2025-06-29T19:51:41Z</time>
      </trkpt>
      <trkpt lat="46.24172" lon="-1.56144">
        <ele>5.4</ele>
        <time>2025-06-29T19:51:49Z</time>
      </trkpt>
      <trkpt lat="46.24184" lon="-1.56141">
        <ele>5.2</ele>
        <time>2025-06-29T19:51:57Z</time>
      </trkpt>
      <trkpt lat="46.24189" lon="-1.56137">
        <ele>5</ele>
        <time>2025-06-29T19:52:01Z</time>
      </trkpt>
      <trkpt lat="46.24195" lon="-1.5613">
        <ele>4.4</ele>
        <time>2025-06-29T19:52:07Z</time>
      </trkpt>
      <trkpt lat="46.24205" lon="-1.56123">
        <ele>4.4</ele>
        <time>2025-06-29T19:52:15Z</time>
      </trkpt>
      <trkpt lat="46.24209" lon="-1.56107">
        <ele>4.6</ele>
        <time>2025-06-29T19:52:22Z</time>
      </trkpt>
      <trkpt lat="46.24212" lon="-1.5609">
        <ele>4</ele>
        <time>2025-06-29T19:52:29Z</time>
      </trkpt>
      <trkpt lat="46.24214" lon="-1.56073">
        <ele>3.6</ele>
        <time>2025-06-29T19:52:37Z</time>
      </trkpt>
      <trkpt lat="46.24215" lon="-1.56047">
        <ele>4</ele>
        <time>2025-06-29T19:52:48Z</time>
      </trkpt>
      <trkpt lat="46.24216" lon="-1.56027">
        <ele>3.2</ele>
        <time>2025-06-29T19:52:56Z</time>
      </trkpt>
      <trkpt lat="46.24219" lon="-1.56016">
        <ele>3.4</ele>
        <time>2025-06-29T19:53:02Z</time>
      </trkpt>
      <trkpt lat="46.2422" lon="-1.56016">
        <ele>3.4</ele>
        <time>2025-06-29T19:53:03Z</time>
      </trkpt>
      <trkpt lat="46.24225" lon="-1.56014">
        <ele>2.8</ele>
        <time>2025-06-29T19:53:06Z</time>
      </trkpt>
      <trkpt lat="46.24233" lon="-1.56005">
        <ele>2.4</ele>
        <time>2025-06-29T19:53:12Z</time>
      </trkpt>
      <trkpt lat="46.24234" lon="-1.56003">
        <ele>2.2</ele>
        <time>2025-06-29T19:53:13Z</time>
      </trkpt>
      <trkpt lat="46.24238" lon="-1.55996">
        <ele>2.2</ele>
        <time>2025-06-29T19:53:17Z</time>
      </trkpt>
      <trkpt lat="46.2425" lon="-1.55983">
        <ele>2</ele>
        <time>2025-06-29T19:53:26Z</time>
      </trkpt>
      <trkpt lat="46.24251" lon="-1.55982">
        <ele>2</ele>
        <time>2025-06-29T19:53:27Z</time>
      </trkpt>
      <trkpt lat="46.24254" lon="-1.55978">
        <ele>2.2</ele>
        <time>2025-06-29T19:53:30Z</time>
      </trkpt>
      <trkpt lat="46.24258" lon="-1.55974">
        <ele>2</ele>
        <time>2025-06-29T19:53:33Z</time>
      </trkpt>
      <trkpt lat="46.24266" lon="-1.55965">
        <ele>1.8</ele>
        <time>2025-06-29T19:53:39Z</time>
      </trkpt>
      <trkpt lat="46.2428" lon="-1.55952">
        <ele>2.2</ele>
        <time>2025-06-29T19:53:49Z</time>
      </trkpt>
      <trkpt lat="46.24281" lon="-1.55951">
        <ele>2.2</ele>
        <time>2025-06-29T19:53:50Z</time>
      </trkpt>
      <trkpt lat="46.24294" lon="-1.5594">
        <ele>2</ele>
        <time>2025-06-29T19:53:59Z</time>
      </trkpt>
      <trkpt lat="46.24308" lon="-1.55928">
        <ele>2</ele>
        <time>2025-06-29T19:54:08Z</time>
      </trkpt>
      <trkpt lat="46.24317" lon="-1.55921">
        <ele>2.6</ele>
        <time>2025-06-29T19:54:14Z</time>
      </trkpt>
      <trkpt lat="46.24324" lon="-1.5592">
        <ele>2.6</ele>
        <time>2025-06-29T19:54:20Z</time>
      </trkpt>
      <trkpt lat="46.24331" lon="-1.55932">
        <ele>2.6</ele>
        <time>2025-06-29T19:54:27Z</time>
      </trkpt>
      <trkpt lat="46.2434" lon="-1.55952">
        <ele>2.2</ele>
        <time>2025-06-29T19:54:37Z</time>
      </trkpt>
      <trkpt lat="46.24347" lon="-1.55964">
        <ele>2.8</ele>
        <time>2025-06-29T19:54:44Z</time>
      </trkpt>
      <trkpt lat="46.24359" lon="-1.55986">
        <ele>2.8</ele>
        <time>2025-06-29T19:54:56Z</time>
      </trkpt>
      <trkpt lat="46.2436" lon="-1.55989">
        <ele>2.8</ele>
        <time>2025-06-29T19:54:58Z</time>
      </trkpt>
      <trkpt lat="46.24364" lon="-1.55999">
        <ele>3.2</ele>
        <time>2025-06-29T19:55:04Z</time>
      </trkpt>
      <trkpt lat="46.24366" lon="-1.56002">
        <ele>3.4</ele>
        <time>2025-06-29T19:55:06Z</time>
      </trkpt>
      <trkpt lat="46.24374" lon="-1.56018">
        <ele>3.8</ele>
        <time>2025-06-29T19:55:15Z</time>
      </trkpt>
      <trkpt lat="46.24376" lon="-1.56022">
        <ele>4</ele>
        <time>2025-06-29T19:55:18Z</time>
      </trkpt>
      <trkpt lat="46.24381" lon="-1.56033">
        <ele>3.4</ele>
        <time>2025-06-29T19:55:25Z</time>
      </trkpt>
      <trkpt lat="46.2439" lon="-1.56054">
        <ele>3.2</ele>
        <time>2025-06-29T19:55:35Z</time>
      </trkpt>
      <trkpt lat="46.24398" lon="-1.56068">
        <ele>3.8</ele>
        <time>2025-06-29T19:55:43Z</time>
      </trkpt>
      <trkpt lat="46.24402" lon="-1.56073">
        <ele>4.2</ele>
        <time>2025-06-29T19:55:46Z</time>
      </trkpt>
      <trkpt lat="46.24402" lon="-1.56077">
        <ele>4.4</ele>
        <time>2025-06-29T19:55:48Z</time>
      </trkpt>
      <trkpt lat="46.24402" lon="-1.56079">
        <ele>4.4</ele>
        <time>2025-06-29T19:55:49Z</time>
      </trkpt>
      <trkpt lat="46.244" lon="-1.56103">
        <ele>4.2</ele>
        <time>2025-06-29T19:55:59Z</time>
      </trkpt>
      <trkpt lat="46.24403" lon="-1.56123">
        <ele>4.4</ele>
        <time>2025-06-29T19:56:08Z</time>
      </trkpt>
      <trkpt lat="46.24405" lon="-1.56136">
        <ele>4.6</ele>
        <time>2025-06-29T19:56:14Z</time>
      </trkpt>
      <trkpt lat="46.2441" lon="-1.56144">
        <ele>4.8</ele>
        <time>2025-06-29T19:56:19Z</time>
      </trkpt>
      <trkpt lat="46.24415" lon="-1.56148">
        <ele>5.4</ele>
        <time>2025-06-29T19:56:23Z</time>
      </trkpt>
      <trkpt lat="46.24424" lon="-1.56148">
        <ele>5.8</ele>
        <time>2025-06-29T19:56:29Z</time>
      </trkpt>
      <trkpt lat="46.24425" lon="-1.56147">
        <ele>6</ele>
        <time>2025-06-29T19:56:30Z</time>
      </trkpt>
      <trkpt lat="46.2443" lon="-1.56145">
        <ele>6.2</ele>
        <time>2025-06-29T19:56:34Z</time>
      </trkpt>
      <trkpt lat="46.24434" lon="-1.56149">
        <ele>5.8</ele>
        <time>2025-06-29T19:56:37Z</time>
      </trkpt>
      <trkpt lat="46.24441" lon="-1.56162">
        <ele>5.4</ele>
        <time>2025-06-29T19:56:45Z</time>
      </trkpt>
      <trkpt lat="46.24447" lon="-1.56172">
        <ele>5.4</ele>
        <time>2025-06-29T19:56:51Z</time>
      </trkpt>
      <trkpt lat="46.2445" lon="-1.56175">
        <ele>5.8</ele>
        <time>2025-06-29T19:56:53Z</time>
      </trkpt>
      <trkpt lat="46.24458" lon="-1.56181">
        <ele>6.6</ele>
        <time>2025-06-29T19:57:00Z</time>
      </trkpt>
      <trkpt lat="46.24462" lon="-1.56185">
        <ele>6.8</ele>
        <time>2025-06-29T19:57:04Z</time>
      </trkpt>
      <trkpt lat="46.24466" lon="-1.56187">
        <ele>7</ele>
        <time>2025-06-29T19:57:08Z</time>
      </trkpt>
      <trkpt lat="46.24471" lon="-1.56189">
        <ele>8</ele>
        <time>2025-06-29T19:57:12Z</time>
      </trkpt>
      <trkpt lat="46.24475" lon="-1.56189">
        <ele>8.6</ele>
        <time>2025-06-29T19:57:15Z</time>
      </trkpt>
      <trkpt lat="46.24476" lon="-1.56188">
        <ele>8.6</ele>
        <time>2025-06-29T19:57:16Z</time>
      </trkpt>
      <trkpt lat="46.24479" lon="-1.5618">
        <ele>9.2</ele>
        <time>2025-06-29T19:57:20Z</time>
      </trkpt>
      <trkpt lat="46.2448" lon="-1.56176">
        <ele>9.2</ele>
        <time>2025-06-29T19:57:24Z</time>
      </trkpt>
      <trkpt lat="46.24481" lon="-1.56173">
        <ele>8.6</ele>
        <time>2025-06-29T19:57:29Z</time>
      </trkpt>
      <trkpt lat="46.24482" lon="-1.56165">
        <ele>8.8</ele>
        <time>2025-06-29T19:57:34Z</time>
      </trkpt>
      <trkpt lat="46.24482" lon="-1.56163">
        <ele>8.8</ele>
        <time>2025-06-29T19:57:35Z</time>
      </trkpt>
      <trkpt lat="46.24482" lon="-1.56157">
        <ele>8.2</ele>
        <time>2025-06-29T19:57:40Z</time>
      </trkpt>
      <trkpt lat="46.24483" lon="-1.56155">
        <ele>8</ele>
        <time>2025-06-29T19:57:42Z</time>
      </trkpt>
      <trkpt lat="46.24484" lon="-1.56152">
        <ele>8</ele>
        <time>2025-06-29T19:57:46Z</time>
      </trkpt>
      <trkpt lat="46.24484" lon="-1.56149">
        <ele>8.6</ele>
        <time>2025-06-29T19:57:52Z</time>
      </trkpt>
      <trkpt lat="46.24484" lon="-1.5615">
        <ele>8.6</ele>
        <time>2025-06-29T19:57:54Z</time>
      </trkpt>
      <trkpt lat="46.24484" lon="-1.56145">
        <ele>8.2</ele>
        <time>2025-06-29T19:57:58Z</time>
      </trkpt>
      <trkpt lat="46.24485" lon="-1.56131">
        <ele>8.6</ele>
        <time>2025-06-29T19:58:05Z</time>
      </trkpt>
      <trkpt lat="46.24488" lon="-1.56114">
        <ele>8.6</ele>
        <time>2025-06-29T19:58:13Z</time>
      </trkpt>
      <trkpt lat="46.24489" lon="-1.56105">
        <ele>8.8</ele>
        <time>2025-06-29T19:58:19Z</time>
      </trkpt>
      <trkpt lat="46.2449" lon="-1.56103">
        <ele>8.6</ele>
        <time>2025-06-29T19:58:22Z</time>
      </trkpt>
      <trkpt lat="46.2449" lon="-1.56103">
        <ele>8.8</ele>
        <time>2025-06-29T19:58:25Z</time>
      </trkpt>
      <trkpt lat="46.2449" lon="-1.56096">
        <ele>8.8</ele>
        <time>2025-06-29T19:58:31Z</time>
      </trkpt>
      <trkpt lat="46.24493" lon="-1.56078">
        <ele>8.6</ele>
        <time>2025-06-29T19:58:39Z</time>
      </trkpt>
      <trkpt lat="46.24493" lon="-1.56076">
        <ele>8.6</ele>
        <time>2025-06-29T19:58:40Z</time>
      </trkpt>
      <trkpt lat="46.24494" lon="-1.56069">
        <ele>9</ele>
        <time>2025-06-29T19:58:44Z</time>
      </trkpt>
      <trkpt lat="46.24494" lon="-1.56067">
        <ele>9.2</ele>
        <time>2025-06-29T19:58:45Z</time>
      </trkpt>
      <trkpt lat="46.24495" lon="-1.56053">
        <ele>8.8</ele>
        <time>2025-06-29T19:58:52Z</time>
      </trkpt>
      <trkpt lat="46.24495" lon="-1.56052">
        <ele>8.6</ele>
        <time>2025-06-29T19:58:57Z</time>
      </trkpt>
      <trkpt lat="46.24495" lon="-1.56051">
        <ele>8.8</ele>
        <time>2025-06-29T19:59:05Z</time>
      </trkpt>
      <trkpt lat="46.24496" lon="-1.56047">
        <ele>8.6</ele>
        <time>2025-06-29T19:59:07Z</time>
      </trkpt>
      <trkpt lat="46.24497" lon="-1.56033">
        <ele>8.4</ele>
        <time>2025-06-29T19:59:15Z</time>
      </trkpt>
      <trkpt lat="46.24497" lon="-1.56026">
        <ele>8.6</ele>
        <time>2025-06-29T19:59:18Z</time>
      </trkpt>
      <trkpt lat="46.24493" lon="-1.56023">
        <ele>8.6</ele>
        <time>2025-06-29T19:59:21Z</time>
      </trkpt>
      <trkpt lat="46.24492" lon="-1.56023">
        <ele>8.6</ele>
        <time>2025-06-29T19:59:22Z</time>
      </trkpt>
      <trkpt lat="46.2449" lon="-1.56022">
        <ele>7.8</ele>
        <time>2025-06-29T19:59:25Z</time>
      </trkpt>
      <trkpt lat="46.2449" lon="-1.56021">
        <ele>7.4</ele>
        <time>2025-06-29T19:59:26Z</time>
      </trkpt>
      <trkpt lat="46.24492" lon="-1.56019">
        <ele>7</ele>
        <time>2025-06-29T19:59:29Z</time>
      </trkpt>
      <trkpt lat="46.24493" lon="-1.56019">
        <ele>6.6</ele>
        <time>2025-06-29T19:59:30Z</time>
      </trkpt>
      <trkpt lat="46.24493" lon="-1.5602">
        <ele>6.4</ele>
        <time>2025-06-29T19:59:31Z</time>
      </trkpt>
      <trkpt lat="46.24496" lon="-1.56023">
        <ele>6</ele>
        <time>2025-06-29T19:59:34Z</time>
      </trkpt>
      <trkpt lat="46.24497" lon="-1.56028">
        <ele>5.8</ele>
        <time>2025-06-29T19:59:38Z</time>
      </trkpt>
      <trkpt lat="46.24499" lon="-1.56032">
        <ele>6.2</ele>
        <time>2025-06-29T19:59:47Z</time>
      </trkpt>
      <trkpt lat="46.24499" lon="-1.56041">
        <ele>5.6</ele>
        <time>2025-06-29T19:59:52Z</time>
      </trkpt>
      <trkpt lat="46.24499" lon="-1.56043">
        <ele>5.6</ele>
        <time>2025-06-29T19:59:54Z</time>
      </trkpt>
      <trkpt lat="46.24501" lon="-1.56047">
        <ele>5</ele>
        <time>2025-06-29T19:59:59Z</time>
      </trkpt>
      <trkpt lat="46.24501" lon="-1.56048">
        <ele>4.6</ele>
        <time>2025-06-29T20:00:03Z</time>
      </trkpt>
      <trkpt lat="46.245" lon="-1.5605">
        <ele>4.4</ele>
        <time>2025-06-29T20:00:05Z</time>
      </trkpt>
      <trkpt lat="46.24497" lon="-1.56057">
        <ele>5</ele>
        <time>2025-06-29T20:00:13Z</time>
      </trkpt>
      <trkpt lat="46.24496" lon="-1.56057">
        <ele>5.6</ele>
        <time>2025-06-29T20:00:18Z</time>
      </trkpt>
      <trkpt lat="46.24497" lon="-1.56056">
        <ele>5.8</ele>
        <time>2025-06-29T20:00:19Z</time>
      </trkpt>
      <trkpt lat="46.24497" lon="-1.56056">
        <ele>5.6</ele>
        <time>2025-06-29T20:00:27Z</time>
      </trkpt>
      <trkpt lat="46.24497" lon="-1.56059">
        <ele>5.8</ele>
        <time>2025-06-29T20:00:31Z</time>
      </trkpt>
      <trkpt lat="46.24493" lon="-1.56083">
        <ele>5.8</ele>
        <time>2025-06-29T20:00:40Z</time>
      </trkpt>
      <trkpt lat="46.24492" lon="-1.56095">
        <ele>5.8</ele>
        <time>2025-06-29T20:00:46Z</time>
      </trkpt>
      <trkpt lat="46.24494" lon="-1.561">
        <ele>5.4</ele>
        <time>2025-06-29T20:00:49Z</time>
      </trkpt>
      <trkpt lat="46.24494" lon="-1.56103">
        <ele>5.2</ele>
        <time>2025-06-29T20:00:51Z</time>
      </trkpt>
      <trkpt lat="46.24491" lon="-1.56109">
        <ele>5.4</ele>
        <time>2025-06-29T20:00:55Z</time>
      </trkpt>
      <trkpt lat="46.24491" lon="-1.56115">
        <ele>5.6</ele>
        <time>2025-06-29T20:00:58Z</time>
      </trkpt>
      <trkpt lat="46.24491" lon="-1.56121">
        <ele>5.4</ele>
        <time>2025-06-29T20:01:01Z</time>
      </trkpt>
      <trkpt lat="46.2449" lon="-1.5613">
        <ele>5</ele>
        <time>2025-06-29T20:01:05Z</time>
      </trkpt>
      <trkpt lat="46.24492" lon="-1.56139">
        <ele>4.8</ele>
        <time>2025-06-29T20:01:11Z</time>
      </trkpt>
      <trkpt lat="46.24492" lon="-1.56139">
        <ele>4.6</ele>
        <time>2025-06-29T20:01:12Z</time>
      </trkpt>
      <trkpt lat="46.24493" lon="-1.56142">
        <ele>3.6</ele>
        <time>2025-06-29T20:01:16Z</time>
      </trkpt>
      <trkpt lat="46.24494" lon="-1.56146">
        <ele>3.4</ele>
        <time>2025-06-29T20:01:19Z</time>
      </trkpt>
      <trkpt lat="46.24496" lon="-1.56149">
        <ele>2.6</ele>
        <time>2025-06-29T20:01:24Z</time>
      </trkpt>
      <trkpt lat="46.24496" lon="-1.56148">
        <ele>2.2</ele>
        <time>2025-06-29T20:01:27Z</time>
      </trkpt>
      <trkpt lat="46.24496" lon="-1.56148">
        <ele>2.4</ele>
        <time>2025-06-29T20:01:34Z</time>
      </trkpt>
      <trkpt lat="46.24496" lon="-1.56148">
        <ele>3</ele>
        <time>2025-06-29T20:01:39Z</time>
      </trkpt>
      <trkpt lat="46.24495" lon="-1.56141">
        <ele>3</ele>
        <time>2025-06-29T20:01:49Z</time>
      </trkpt>
      <trkpt lat="46.24496" lon="-1.56134">
        <ele>2.8</ele>
        <time>2025-06-29T20:01:55Z</time>
      </trkpt>
      <trkpt lat="46.24498" lon="-1.56132">
        <ele>2.2</ele>
        <time>2025-06-29T20:02:02Z</time>
      </trkpt>
      <trkpt lat="46.245" lon="-1.56132">
        <ele>2</ele>
        <time>2025-06-29T20:02:06Z</time>
      </trkpt>
      <trkpt lat="46.245" lon="-1.56133">
        <ele>2</ele>
        <time>2025-06-29T20:02:10Z</time>
      </trkpt>
      <trkpt lat="46.245" lon="-1.56132">
        <ele>3</ele>
        <time>2025-06-29T20:02:22Z</time>
      </trkpt>
      <trkpt lat="46.24499" lon="-1.56131">
        <ele>3.2</ele>
        <time>2025-06-29T20:02:27Z</time>
      </trkpt>
      <trkpt lat="46.24497" lon="-1.56127">
        <ele>3.6</ele>
        <time>2025-06-29T20:02:35Z</time>
      </trkpt>
      <trkpt lat="46.24494" lon="-1.56125">
        <ele>4</ele>
        <time>2025-06-29T20:02:37Z</time>
      </trkpt>
      <trkpt lat="46.24492" lon="-1.56123">
        <ele>4.6</ele>
        <time>2025-06-29T20:02:39Z</time>
      </trkpt>
      <trkpt lat="46.24489" lon="-1.56121">
        <ele>5.6</ele>
        <time>2025-06-29T20:02:43Z</time>
      </trkpt>
      <trkpt lat="46.24489" lon="-1.56121">
        <ele>5.6</ele>
        <time>2025-06-29T20:02:44Z</time>
      </trkpt>
      <trkpt lat="46.24489" lon="-1.56122">
        <ele>5.6</ele>
        <time>2025-06-29T20:02:54Z</time>
      </trkpt>
      <trkpt lat="46.24489" lon="-1.56121">
        <ele>6</ele>
        <time>2025-06-29T20:03:03Z</time>
      </trkpt>
      <trkpt lat="46.24489" lon="-1.56121">
        <ele>5.8</ele>
        <time>2025-06-29T20:03:05Z</time>
      </trkpt>
      <trkpt lat="46.24489" lon="-1.56121">
        <ele>5.8</ele>
        <time>2025-06-29T20:03:07Z</time>
      </trkpt>
      <trkpt lat="46.24489" lon="-1.56121">
        <ele>5.8</ele>
        <time>2025-06-29T20:03:11Z</time>
      </trkpt>
      <trkpt lat="46.24489" lon="-1.56121">
        <ele>5.6</ele>
        <time>2025-06-29T20:03:20Z</time>
      </trkpt>
      <trkpt lat="46.24489" lon="-1.56121">
        <ele>5.6</ele>
        <time>2025-06-29T20:03:25Z</time>
      </trkpt>
      <trkpt lat="46.24489" lon="-1.5612">
        <ele>5.6</ele>
        <time>2025-06-29T20:03:34Z</time>
      </trkpt>
      <trkpt lat="46.24489" lon="-1.5612">
        <ele>5.8</ele>
        <time>2025-06-29T20:03:38Z</time>
      </trkpt>
      <trkpt lat="46.2449" lon="-1.5612">
        <ele>5.4</ele>
        <time>2025-06-29T20:03:53Z</time>
      </trkpt>
      <trkpt lat="46.2449" lon="-1.5612">
        <ele>6</ele>
        <time>2025-06-29T20:04:00Z</time>
      </trkpt>
      <trkpt lat="46.2449" lon="-1.5612">
        <ele>5.8</ele>
        <time>2025-06-29T20:04:05Z</time>
      </trkpt>
      <trkpt lat="46.2449" lon="-1.5612">
        <ele>5.4</ele>
        <time>2025-06-29T20:04:11Z</time>
      </trkpt>
      <trkpt lat="46.2449" lon="-1.5612">
        <ele>5.4</ele>
        <time>2025-06-29T20:04:13Z</time>
      </trkpt>
      <trkpt lat="46.2449" lon="-1.5612">
        <ele>5.6</ele>
        <time>2025-06-29T20:04:15Z</time>
      </trkpt>
      <trkpt lat="46.2449" lon="-1.56119">
        <ele>5.6</ele>
        <time>2025-06-29T20:04:21Z</time>
      </trkpt>
      <trkpt lat="46.24491" lon="-1.56118">
        <ele>5.4</ele>
        <time>2025-06-29T20:04:32Z</time>
      </trkpt>
      <trkpt lat="46.24491" lon="-1.56118">
        <ele>5.8</ele>
        <time>2025-06-29T20:04:36Z</time>
      </trkpt>
      <trkpt lat="46.24491" lon="-1.56118">
        <ele>5.8</ele>
        <time>2025-06-29T20:04:49Z</time>
      </trkpt>
      <trkpt lat="46.24492" lon="-1.56118">
        <ele>2.4</ele>
        <time>2025-06-29T20:04:59Z</time>
      </trkpt>
      <trkpt lat="46.24492" lon="-1.56119">
        <ele>1.8</ele>
        <time>2025-06-29T20:05:05Z</time>
      </trkpt>
      <trkpt lat="46.24491" lon="-1.56114">
        <ele>1.8</ele>
        <time>2025-06-29T20:05:13Z</time>
      </trkpt>
      <trkpt lat="46.24493" lon="-1.56105">
        <ele>1.4</ele>
        <time>2025-06-29T20:05:21Z</time>
      </trkpt>
      <trkpt lat="46.24493" lon="-1.56101">
        <ele>1.4</ele>
        <time>2025-06-29T20:05:23Z</time>
      </trkpt>
      <trkpt lat="46.24494" lon="-1.56095">
        <ele>1.2</ele>
        <time>2025-06-29T20:05:27Z</time>
      </trkpt>
      <trkpt lat="46.24494" lon="-1.5609">
        <ele>1.4</ele>
        <time>2025-06-29T20:05:31Z</time>
      </trkpt>
      <trkpt lat="46.24495" lon="-1.56083">
        <ele>1.6</ele>
        <time>2025-06-29T20:05:36Z</time>
      </trkpt>
      <trkpt lat="46.24496" lon="-1.56073">
        <ele>1.4</ele>
        <time>2025-06-29T20:05:44Z</time>
      </trkpt>
      <trkpt lat="46.24497" lon="-1.56063">
        <ele>1.4</ele>
        <time>2025-06-29T20:05:52Z</time>
      </trkpt>
      <trkpt lat="46.24497" lon="-1.56059">
        <ele>1.4</ele>
        <time>2025-06-29T20:05:56Z</time>
      </trkpt>
      <trkpt lat="46.24498" lon="-1.56052">
        <ele>1.2</ele>
        <time>2025-06-29T20:06:02Z</time>
      </trkpt>
      <trkpt lat="46.24498" lon="-1.56045">
        <ele>1.4</ele>
        <time>2025-06-29T20:06:08Z</time>
      </trkpt>
      <trkpt lat="46.24499" lon="-1.56039">
        <ele>1</ele>
        <time>2025-06-29T20:06:14Z</time>
      </trkpt>
      <trkpt lat="46.24499" lon="-1.56034">
        <ele>1</ele>
        <time>2025-06-29T20:06:18Z</time>
      </trkpt>
      <trkpt lat="46.24499" lon="-1.5603">
        <ele>1.6</ele>
        <time>2025-06-29T20:06:21Z</time>
      </trkpt>
      <trkpt lat="46.24498" lon="-1.56028">
        <ele>1.8</ele>
        <time>2025-06-29T20:06:22Z</time>
      </trkpt>
      <trkpt lat="46.24498" lon="-1.56025">
        <ele>2.2</ele>
        <time>2025-06-29T20:06:24Z</time>
      </trkpt>
      <trkpt lat="46.24498" lon="-1.56024">
        <ele>2.4</ele>
        <time>2025-06-29T20:06:25Z</time>
      </trkpt>
      <trkpt lat="46.24497" lon="-1.5602">
        <ele>2.8</ele>
        <time>2025-06-29T20:06:28Z</time>
      </trkpt>
      <trkpt lat="46.24496" lon="-1.56019">
        <ele>2.6</ele>
        <time>2025-06-29T20:06:29Z</time>
      </trkpt>
      <trkpt lat="46.24495" lon="-1.56015">
        <ele>2.6</ele>
        <time>2025-06-29T20:06:32Z</time>
      </trkpt>
      <trkpt lat="46.24497" lon="-1.56011">
        <ele>2.6</ele>
        <time>2025-06-29T20:06:34Z</time>
      </trkpt>
      <trkpt lat="46.24495" lon="-1.55999">
        <ele>2.4</ele>
        <time>2025-06-29T20:06:42Z</time>
      </trkpt>
      <trkpt lat="46.24494" lon="-1.55991">
        <ele>2.6</ele>
        <time>2025-06-29T20:06:47Z</time>
      </trkpt>
      <trkpt lat="46.24493" lon="-1.55989">
        <ele>2.6</ele>
        <time>2025-06-29T20:06:50Z</time>
      </trkpt>
      <trkpt lat="46.24493" lon="-1.55987">
        <ele>2.6</ele>
        <time>2025-06-29T20:06:51Z</time>
      </trkpt>
      <trkpt lat="46.24492" lon="-1.55984">
        <ele>2.6</ele>
        <time>2025-06-29T20:06:53Z</time>
      </trkpt>
      <trkpt lat="46.24492" lon="-1.55982">
        <ele>2.6</ele>
        <time>2025-06-29T20:06:54Z</time>
      </trkpt>
      <trkpt lat="46.24493" lon="-1.55977">
        <ele>2.6</ele>
        <time>2025-06-29T20:06:57Z</time>
      </trkpt>
      <trkpt lat="46.24492" lon="-1.55973">
        <ele>2.8</ele>
        <time>2025-06-29T20:06:59Z</time>
      </trkpt>
      <trkpt lat="46.24491" lon="-1.55958">
        <ele>3</ele>
        <time>2025-06-29T20:07:08Z</time>
      </trkpt>
      <trkpt lat="46.24491" lon="-1.55942">
        <ele>3.4</ele>
        <time>2025-06-29T20:07:17Z</time>
      </trkpt>
      <trkpt lat="46.24491" lon="-1.5594">
        <ele>3.4</ele>
        <time>2025-06-29T20:07:18Z</time>
      </trkpt>
      <trkpt lat="46.24489" lon="-1.55922">
        <ele>3.4</ele>
        <time>2025-06-29T20:07:28Z</time>
      </trkpt>
      <trkpt lat="46.24487" lon="-1.55905">
        <ele>3.4</ele>
        <time>2025-06-29T20:07:37Z</time>
      </trkpt>
      <trkpt lat="46.24485" lon="-1.55886">
        <ele>3.4</ele>
        <time>2025-06-29T20:07:47Z</time>
      </trkpt>
      <trkpt lat="46.24483" lon="-1.55866">
        <ele>3.6</ele>
        <time>2025-06-29T20:07:58Z</time>
      </trkpt>
      <trkpt lat="46.24481" lon="-1.55851">
        <ele>3.4</ele>
        <time>2025-06-29T20:08:06Z</time>
      </trkpt>
      <trkpt lat="46.24479" lon="-1.55834">
        <ele>3.6</ele>
        <time>2025-06-29T20:08:15Z</time>
      </trkpt>
      <trkpt lat="46.24478" lon="-1.55825">
        <ele>3.4</ele>
        <time>2025-06-29T20:08:20Z</time>
      </trkpt>
      <trkpt lat="46.24477" lon="-1.55821">
        <ele>3.2</ele>
        <time>2025-06-29T20:08:22Z</time>
      </trkpt>
      <trkpt lat="46.24477" lon="-1.55817">
        <ele>3.2</ele>
        <time>2025-06-29T20:08:24Z</time>
      </trkpt>
      <trkpt lat="46.24474" lon="-1.55804">
        <ele>3.2</ele>
        <time>2025-06-29T20:08:31Z</time>
      </trkpt>
      <trkpt lat="46.24472" lon="-1.55788">
        <ele>3</ele>
        <time>2025-06-29T20:08:40Z</time>
      </trkpt>
      <trkpt lat="46.24468" lon="-1.55774">
        <ele>3</ele>
        <time>2025-06-29T20:08:48Z</time>
      </trkpt>
      <trkpt lat="46.24464" lon="-1.5576">
        <ele>3</ele>
        <time>2025-06-29T20:08:56Z</time>
      </trkpt>
      <trkpt lat="46.24458" lon="-1.55742">
        <ele>2.6</ele>
        <time>2025-06-29T20:09:06Z</time>
      </trkpt>
      <trkpt lat="46.24452" lon="-1.55728">
        <ele>2.6</ele>
        <time>2025-06-29T20:09:15Z</time>
      </trkpt>
      <trkpt lat="46.24447" lon="-1.55714">
        <ele>2.6</ele>
        <time>2025-06-29T20:09:23Z</time>
      </trkpt>
      <trkpt lat="46.24444" lon="-1.557">
        <ele>2.4</ele>
        <time>2025-06-29T20:09:31Z</time>
      </trkpt>
      <trkpt lat="46.24441" lon="-1.55686">
        <ele>2.4</ele>
        <time>2025-06-29T20:09:39Z</time>
      </trkpt>
      <trkpt lat="46.24439" lon="-1.55683">
        <ele>2.4</ele>
        <time>2025-06-29T20:09:41Z</time>
      </trkpt>
      <trkpt lat="46.24435" lon="-1.55672">
        <ele>2.2</ele>
        <time>2025-06-29T20:09:47Z</time>
      </trkpt>
      <trkpt lat="46.2443" lon="-1.55658">
        <ele>2.4</ele>
        <time>2025-06-29T20:09:56Z</time>
      </trkpt>
      <trkpt lat="46.24428" lon="-1.5565">
        <ele>2.4</ele>
        <time>2025-06-29T20:10:00Z</time>
      </trkpt>
      <trkpt lat="46.24426" lon="-1.5564">
        <ele>2.4</ele>
        <time>2025-06-29T20:10:06Z</time>
      </trkpt>
      <trkpt lat="46.24423" lon="-1.5563">
        <ele>2.4</ele>
        <time>2025-06-29T20:10:12Z</time>
      </trkpt>
      <trkpt lat="46.24422" lon="-1.55624">
        <ele>2.6</ele>
        <time>2025-06-29T20:10:15Z</time>
      </trkpt>
      <trkpt lat="46.24417" lon="-1.55607">
        <ele>2.6</ele>
        <time>2025-06-29T20:10:24Z</time>
      </trkpt>
      <trkpt lat="46.24417" lon="-1.55605">
        <ele>2.6</ele>
        <time>2025-06-29T20:10:26Z</time>
      </trkpt>
      <trkpt lat="46.24413" lon="-1.55589">
        <ele>2.6</ele>
        <time>2025-06-29T20:10:34Z</time>
      </trkpt>
      <trkpt lat="46.2441" lon="-1.55576">
        <ele>2.6</ele>
        <time>2025-06-29T20:10:42Z</time>
      </trkpt>
      <trkpt lat="46.24406" lon="-1.55554">
        <ele>2.4</ele>
        <time>2025-06-29T20:10:54Z</time>
      </trkpt>
      <trkpt lat="46.24403" lon="-1.55541">
        <ele>2.2</ele>
        <time>2025-06-29T20:11:02Z</time>
      </trkpt>
      <trkpt lat="46.24403" lon="-1.55537">
        <ele>2.2</ele>
        <time>2025-06-29T20:11:04Z</time>
      </trkpt>
      <trkpt lat="46.24398" lon="-1.55518">
        <ele>2.6</ele>
        <time>2025-06-29T20:11:15Z</time>
      </trkpt>
      <trkpt lat="46.24395" lon="-1.55503">
        <ele>2.2</ele>
        <time>2025-06-29T20:11:24Z</time>
      </trkpt>
      <trkpt lat="46.24391" lon="-1.55489">
        <ele>2</ele>
        <time>2025-06-29T20:11:32Z</time>
      </trkpt>
      <trkpt lat="46.24391" lon="-1.55488">
        <ele>2</ele>
        <time>2025-06-29T20:11:33Z</time>
      </trkpt>
      <trkpt lat="46.24389" lon="-1.55477">
        <ele>1.8</ele>
        <time>2025-06-29T20:11:39Z</time>
      </trkpt>
      <trkpt lat="46.24387" lon="-1.55467">
        <ele>2</ele>
        <time>2025-06-29T20:11:45Z</time>
      </trkpt>
      <trkpt lat="46.24385" lon="-1.5546">
        <ele>2</ele>
        <time>2025-06-29T20:11:49Z</time>
      </trkpt>
      <trkpt lat="46.24382" lon="-1.55445">
        <ele>2</ele>
        <time>2025-06-29T20:11:58Z</time>
      </trkpt>
      <trkpt lat="46.2438" lon="-1.55437">
        <ele>2.2</ele>
        <time>2025-06-29T20:12:03Z</time>
      </trkpt>
      <trkpt lat="46.24379" lon="-1.5543">
        <ele>2.2</ele>
        <time>2025-06-29T20:12:07Z</time>
      </trkpt>
      <trkpt lat="46.24378" lon="-1.55428">
        <ele>2.2</ele>
        <time>2025-06-29T20:12:08Z</time>
      </trkpt>
      <trkpt lat="46.24376" lon="-1.55415">
        <ele>2</ele>
        <time>2025-06-29T20:12:15Z</time>
      </trkpt>
      <trkpt lat="46.24375" lon="-1.55413">
        <ele>2</ele>
        <time>2025-06-29T20:12:16Z</time>
      </trkpt>
      <trkpt lat="46.24372" lon="-1.55402">
        <ele>2</ele>
        <time>2025-06-29T20:12:23Z</time>
      </trkpt>
      <trkpt lat="46.24372" lon="-1.55399">
        <ele>2</ele>
        <time>2025-06-29T20:12:25Z</time>
      </trkpt>
      <trkpt lat="46.2437" lon="-1.55389">
        <ele>2</ele>
        <time>2025-06-29T20:12:30Z</time>
      </trkpt>
      <trkpt lat="46.24369" lon="-1.55384">
        <ele>2.2</ele>
        <time>2025-06-29T20:12:33Z</time>
      </trkpt>
      <trkpt lat="46.24364" lon="-1.5537">
        <ele>2.6</ele>
        <time>2025-06-29T20:12:42Z</time>
      </trkpt>
      <trkpt lat="46.24357" lon="-1.55352">
        <ele>2.6</ele>
        <time>2025-06-29T20:12:54Z</time>
      </trkpt>
      <trkpt lat="46.24355" lon="-1.55333">
        <ele>1.8</ele>
        <time>2025-06-29T20:13:05Z</time>
      </trkpt>
      <trkpt lat="46.24353" lon="-1.55315">
        <ele>2.4</ele>
        <time>2025-06-29T20:13:15Z</time>
      </trkpt>
      <trkpt lat="46.24349" lon="-1.55299">
        <ele>2.6</ele>
        <time>2025-06-29T20:13:24Z</time>
      </trkpt>
      <trkpt lat="46.24346" lon="-1.55285">
        <ele>2.4</ele>
        <time>2025-06-29T20:13:33Z</time>
      </trkpt>
      <trkpt lat="46.24344" lon="-1.55271">
        <ele>2.4</ele>
        <time>2025-06-29T20:13:41Z</time>
      </trkpt>
      <trkpt lat="46.24342" lon="-1.55257">
        <ele>2.4</ele>
        <time>2025-06-29T20:13:49Z</time>
      </trkpt>
      <trkpt lat="46.24341" lon="-1.55248">
        <ele>2.4</ele>
        <time>2025-06-29T20:13:54Z</time>
      </trkpt>
      <trkpt lat="46.24341" lon="-1.55244">
        <ele>2.6</ele>
        <time>2025-06-29T20:13:56Z</time>
      </trkpt>
      <trkpt lat="46.24341" lon="-1.55242">
        <ele>2.6</ele>
        <time>2025-06-29T20:13:57Z</time>
      </trkpt>
      <trkpt lat="46.24341" lon="-1.55228">
        <ele>2.8</ele>
        <time>2025-06-29T20:14:05Z</time>
      </trkpt>
      <trkpt lat="46.2434" lon="-1.55211">
        <ele>2.4</ele>
        <time>2025-06-29T20:14:14Z</time>
      </trkpt>
      <trkpt lat="46.24337" lon="-1.55191">
        <ele>2</ele>
        <time>2025-06-29T20:14:26Z</time>
      </trkpt>
      <trkpt lat="46.24334" lon="-1.55174">
        <ele>2</ele>
        <time>2025-06-29T20:14:37Z</time>
      </trkpt>
      <trkpt lat="46.24333" lon="-1.5516">
        <ele>2</ele>
        <time>2025-06-29T20:14:45Z</time>
      </trkpt>
      <trkpt lat="46.2433" lon="-1.55152">
        <ele>2</ele>
        <time>2025-06-29T20:14:51Z</time>
      </trkpt>
      <trkpt lat="46.2433" lon="-1.55152">
        <ele>2</ele>
        <time>2025-06-29T20:14:53Z</time>
      </trkpt>
      <trkpt lat="46.2433" lon="-1.55153">
        <ele>2.2</ele>
        <time>2025-06-29T20:15:00Z</time>
      </trkpt>
      <trkpt lat="46.24329" lon="-1.55152">
        <ele>2.2</ele>
        <time>2025-06-29T20:15:11Z</time>
      </trkpt>
      <trkpt lat="46.24327" lon="-1.5514">
        <ele>2</ele>
        <time>2025-06-29T20:15:34Z</time>
      </trkpt>
      <trkpt lat="46.24325" lon="-1.55123">
        <ele>2</ele>
        <time>2025-06-29T20:15:43Z</time>
      </trkpt>
      <trkpt lat="46.24323" lon="-1.55117">
        <ele>2.2</ele>
        <time>2025-06-29T20:15:47Z</time>
      </trkpt>
      <trkpt lat="46.24322" lon="-1.55108">
        <ele>2.2</ele>
        <time>2025-06-29T20:15:52Z</time>
      </trkpt>
      <trkpt lat="46.24319" lon="-1.55091">
        <ele>1.4</ele>
        <time>2025-06-29T20:16:02Z</time>
      </trkpt>
      <trkpt lat="46.24317" lon="-1.55089">
        <ele>1.4</ele>
        <time>2025-06-29T20:16:04Z</time>
      </trkpt>
      <trkpt lat="46.24314" lon="-1.55085">
        <ele>1.4</ele>
        <time>2025-06-29T20:16:09Z</time>
      </trkpt>
      <trkpt lat="46.24317" lon="-1.55081">
        <ele>1.6</ele>
        <time>2025-06-29T20:16:15Z</time>
      </trkpt>
      <trkpt lat="46.24315" lon="-1.5508">
        <ele>1.2</ele>
        <time>2025-06-29T20:16:21Z</time>
      </trkpt>
      <trkpt lat="46.24306" lon="-1.55082">
        <ele>1.6</ele>
        <time>2025-06-29T20:16:29Z</time>
      </trkpt>
      <trkpt lat="46.24297" lon="-1.55086">
        <ele>0.80000000000001</ele>
        <time>2025-06-29T20:16:36Z</time>
      </trkpt>
      <trkpt lat="46.24294" lon="-1.55087">
        <ele>0.60000000000002</ele>
        <time>2025-06-29T20:16:38Z</time>
      </trkpt>
      <trkpt lat="46.24292" lon="-1.55088">
        <ele>0.19999999999999</ele>
        <time>2025-06-29T20:16:40Z</time>
      </trkpt>
      <trkpt lat="46.2429" lon="-1.55088">
        <ele>-0.19999999999999</ele>
        <time>2025-06-29T20:16:42Z</time>
      </trkpt>
      <trkpt lat="46.24289" lon="-1.55088">
        <ele>-0.39999999999998</ele>
        <time>2025-06-29T20:16:43Z</time>
      </trkpt>
      <trkpt lat="46.24283" lon="-1.5509">
        <ele>-1</ele>
        <time>2025-06-29T20:16:47Z</time>
      </trkpt>
      <trkpt lat="46.2428" lon="-1.5509">
        <ele>-1.4</ele>
        <time>2025-06-29T20:16:49Z</time>
      </trkpt>
      <trkpt lat="46.24279" lon="-1.5509">
        <ele>-1.6</ele>
        <time>2025-06-29T20:16:50Z</time>
      </trkpt>
      <trkpt lat="46.24277" lon="-1.55086">
        <ele>-2.2</ele>
        <time>2025-06-29T20:16:53Z</time>
      </trkpt>
      <trkpt lat="46.24275" lon="-1.55076">
        <ele>-2.4</ele>
        <time>2025-06-29T20:16:58Z</time>
      </trkpt>
      <trkpt lat="46.24271" lon="-1.55059">
        <ele>-2.8</ele>
        <time>2025-06-29T20:17:07Z</time>
      </trkpt>
      <trkpt lat="46.24269" lon="-1.55044">
        <ele>-3</ele>
        <time>2025-06-29T20:17:15Z</time>
      </trkpt>
      <trkpt lat="46.24268" lon="-1.55027">
        <ele>-3</ele>
        <time>2025-06-29T20:17:23Z</time>
      </trkpt>
      <trkpt lat="46.24267" lon="-1.55013">
        <ele>-3</ele>
        <time>2025-06-29T20:17:30Z</time>
      </trkpt>
      <trkpt lat="46.24266" lon="-1.55002">
        <ele>-3</ele>
        <time>2025-06-29T20:17:36Z</time>
      </trkpt>
      <trkpt lat="46.24265" lon="-1.54999">
        <ele>-2.8</ele>
        <time>2025-06-29T20:17:38Z</time>
      </trkpt>
      <trkpt lat="46.24263" lon="-1.54989">
        <ele>-2.8</ele>
        <time>2025-06-29T20:17:44Z</time>
      </trkpt>
      <trkpt lat="46.24261" lon="-1.54969">
        <ele>-2.8</ele>
        <time>2025-06-29T20:17:53Z</time>
      </trkpt>
      <trkpt lat="46.24261" lon="-1.54956">
        <ele>-2.6</ele>
        <time>2025-06-29T20:18:00Z</time>
      </trkpt>
      <trkpt lat="46.24257" lon="-1.5494">
        <ele>-2.6</ele>
        <time>2025-06-29T20:18:08Z</time>
      </trkpt>
      <trkpt lat="46.24254" lon="-1.54922">
        <ele>-2.6</ele>
        <time>2025-06-29T20:18:17Z</time>
      </trkpt>
      <trkpt lat="46.24251" lon="-1.5491">
        <ele>-2.4</ele>
        <time>2025-06-29T20:18:24Z</time>
      </trkpt>
      <trkpt lat="46.24251" lon="-1.54909">
        <ele>-2.4</ele>
        <time>2025-06-29T20:18:25Z</time>
      </trkpt>
      <trkpt lat="46.2425" lon="-1.54904">
        <ele>-2.4</ele>
        <time>2025-06-29T20:18:28Z</time>
      </trkpt>
      <trkpt lat="46.24248" lon="-1.54901">
        <ele>-2.4</ele>
        <time>2025-06-29T20:18:30Z</time>
      </trkpt>
      <trkpt lat="46.24246" lon="-1.54891">
        <ele>-2.6</ele>
        <time>2025-06-29T20:18:35Z</time>
      </trkpt>
      <trkpt lat="46.24246" lon="-1.54884">
        <ele>-2.6</ele>
        <time>2025-06-29T20:18:38Z</time>
      </trkpt>
      <trkpt lat="46.24244" lon="-1.54871">
        <ele>-2.4</ele>
        <time>2025-06-29T20:18:44Z</time>
      </trkpt>
      <trkpt lat="46.2424" lon="-1.54859">
        <ele>-2.4</ele>
        <time>2025-06-29T20:18:52Z</time>
      </trkpt>
      <trkpt lat="46.24239" lon="-1.54853">
        <ele>-2.4</ele>
        <time>2025-06-29T20:18:55Z</time>
      </trkpt>
      <trkpt lat="46.24239" lon="-1.54849">
        <ele>-2.4</ele>
        <time>2025-06-29T20:18:57Z</time>
      </trkpt>
      <trkpt lat="46.24241" lon="-1.54833">
        <ele>-2.6</ele>
        <time>2025-06-29T20:19:05Z</time>
      </trkpt>
      <trkpt lat="46.24241" lon="-1.54831">
        <ele>-2.6</ele>
        <time>2025-06-29T20:19:06Z</time>
      </trkpt>
      <trkpt lat="46.2424" lon="-1.5482">
        <ele>-2.6</ele>
        <time>2025-06-29T20:19:11Z</time>
      </trkpt>
      <trkpt lat="46.24235" lon="-1.54806">
        <ele>-2.4</ele>
        <time>2025-06-29T20:19:19Z</time>
      </trkpt>
      <trkpt lat="46.24234" lon="-1.54801">
        <ele>-2.4</ele>
        <time>2025-06-29T20:19:22Z</time>
      </trkpt>
      <trkpt lat="46.24233" lon="-1.54796">
        <ele>-2.6</ele>
        <time>2025-06-29T20:19:25Z</time>
      </trkpt>
      <trkpt lat="46.24231" lon="-1.54784">
        <ele>-2.6</ele>
        <time>2025-06-29T20:19:31Z</time>
      </trkpt>
      <trkpt lat="46.2423" lon="-1.5478">
        <ele>-2.6</ele>
        <time>2025-06-29T20:19:33Z</time>
      </trkpt>
      <trkpt lat="46.2423" lon="-1.54779">
        <ele>-2.6</ele>
        <time>2025-06-29T20:19:34Z</time>
      </trkpt>
      <trkpt lat="46.24228" lon="-1.54768">
        <ele>-2.4</ele>
        <time>2025-06-29T20:19:40Z</time>
      </trkpt>
      <trkpt lat="46.24227" lon="-1.54764">
        <ele>-2.4</ele>
        <time>2025-06-29T20:19:42Z</time>
      </trkpt>
      <trkpt lat="46.24225" lon="-1.54752">
        <ele>-2.4</ele>
        <time>2025-06-29T20:19:49Z</time>
      </trkpt>
      <trkpt lat="46.24224" lon="-1.54746">
        <ele>-2.6</ele>
        <time>2025-06-29T20:19:52Z</time>
      </trkpt>
      <trkpt lat="46.24223" lon="-1.54743">
        <ele>-2.6</ele>
        <time>2025-06-29T20:19:54Z</time>
      </trkpt>
      <trkpt lat="46.24222" lon="-1.54733">
        <ele>-2.8</ele>
        <time>2025-06-29T20:19:59Z</time>
      </trkpt>
      <trkpt lat="46.2422" lon="-1.54728">
        <ele>-2.6</ele>
        <time>2025-06-29T20:20:02Z</time>
      </trkpt>
      <trkpt lat="46.2422" lon="-1.54724">
        <ele>-2.6</ele>
        <time>2025-06-29T20:20:04Z</time>
      </trkpt>
      <trkpt lat="46.24219" lon="-1.5472">
        <ele>-2.8</ele>
        <time>2025-06-29T20:20:07Z</time>
      </trkpt>
      <trkpt lat="46.24219" lon="-1.54716">
        <ele>-2.8</ele>
        <time>2025-06-29T20:20:09Z</time>
      </trkpt>
      <trkpt lat="46.24218" lon="-1.54708">
        <ele>-2.8</ele>
        <time>2025-06-29T20:20:13Z</time>
      </trkpt>
      <trkpt lat="46.24217" lon="-1.54702">
        <ele>-2.8</ele>
        <time>2025-06-29T20:20:16Z</time>
      </trkpt>
      <trkpt lat="46.24215" lon="-1.54687">
        <ele>-2.6</ele>
        <time>2025-06-29T20:20:23Z</time>
      </trkpt>
      <trkpt lat="46.24221" lon="-1.54669">
        <ele>-2.6</ele>
        <time>2025-06-29T20:20:31Z</time>
      </trkpt>
      <trkpt lat="46.2422" lon="-1.54655">
        <ele>-2.8</ele>
        <time>2025-06-29T20:20:38Z</time>
      </trkpt>
      <trkpt lat="46.24221" lon="-1.54653">
        <ele>-2.6</ele>
        <time>2025-06-29T20:20:39Z</time>
      </trkpt>
      <trkpt lat="46.24221" lon="-1.5465">
        <ele>-2.6</ele>
        <time>2025-06-29T20:20:40Z</time>
      </trkpt>
      <trkpt lat="46.24221" lon="-1.54646">
        <ele>-2.6</ele>
        <time>2025-06-29T20:20:42Z</time>
      </trkpt>
      <trkpt lat="46.24221" lon="-1.54642">
        <ele>-2.6</ele>
        <time>2025-06-29T20:20:44Z</time>
      </trkpt>
      <trkpt lat="46.24221" lon="-1.54628">
        <ele>-2.4</ele>
        <time>2025-06-29T20:20:51Z</time>
      </trkpt>
      <trkpt lat="46.24222" lon="-1.54612">
        <ele>-2.2</ele>
        <time>2025-06-29T20:21:00Z</time>
      </trkpt>
      <trkpt lat="46.24224" lon="-1.54593">
        <ele>-2.2</ele>
        <time>2025-06-29T20:21:10Z</time>
      </trkpt>
      <trkpt lat="46.24224" lon="-1.54591">
        <ele>-2.2</ele>
        <time>2025-06-29T20:21:11Z</time>
      </trkpt>
      <trkpt lat="46.24225" lon="-1.54576">
        <ele>-2.4</ele>
        <time>2025-06-29T20:21:19Z</time>
      </trkpt>
      <trkpt lat="46.24225" lon="-1.54567">
        <ele>-2</ele>
        <time>2025-06-29T20:21:24Z</time>
      </trkpt>
      <trkpt lat="46.24225" lon="-1.54557">
        <ele>-2</ele>
        <time>2025-06-29T20:21:29Z</time>
      </trkpt>
      <trkpt lat="46.24225" lon="-1.54541">
        <ele>-2</ele>
        <time>2025-06-29T20:21:37Z</time>
      </trkpt>
      <trkpt lat="46.24226" lon="-1.54531">
        <ele>-1.8</ele>
        <time>2025-06-29T20:21:43Z</time>
      </trkpt>
      <trkpt lat="46.24226" lon="-1.54529">
        <ele>-2</ele>
        <time>2025-06-29T20:21:44Z</time>
      </trkpt>
      <trkpt lat="46.24226" lon="-1.54518">
        <ele>-1.8</ele>
        <time>2025-06-29T20:21:50Z</time>
      </trkpt>
      <trkpt lat="46.24228" lon="-1.54509">
        <ele>-1.8</ele>
        <time>2025-06-29T20:21:54Z</time>
      </trkpt>
      <trkpt lat="46.24227" lon="-1.5449">
        <ele>-1.6</ele>
        <time>2025-06-29T20:22:04Z</time>
      </trkpt>
      <trkpt lat="46.24227" lon="-1.54473">
        <ele>-1.4</ele>
        <time>2025-06-29T20:22:13Z</time>
      </trkpt>
      <trkpt lat="46.24225" lon="-1.54459">
        <ele>-1.4</ele>
        <time>2025-06-29T20:22:20Z</time>
      </trkpt>
      <trkpt lat="46.24219" lon="-1.5444">
        <ele>-1.8</ele>
        <time>2025-06-29T20:22:30Z</time>
      </trkpt>
      <trkpt lat="46.24206" lon="-1.54424">
        <ele>-2.2</ele>
        <time>2025-06-29T20:22:43Z</time>
      </trkpt>
      <trkpt lat="46.24197" lon="-1.54407">
        <ele>-2.8</ele>
        <time>2025-06-29T20:22:55Z</time>
      </trkpt>
      <trkpt lat="46.24188" lon="-1.54392">
        <ele>-3</ele>
        <time>2025-06-29T20:23:06Z</time>
      </trkpt>
      <trkpt lat="46.24186" lon="-1.54387">
        <ele>-3</ele>
        <time>2025-06-29T20:23:09Z</time>
      </trkpt>
      <trkpt lat="46.24184" lon="-1.54384">
        <ele>-3</ele>
        <time>2025-06-29T20:23:10Z</time>
      </trkpt>
      <trkpt lat="46.24183" lon="-1.54383">
        <ele>-3</ele>
        <time>2025-06-29T20:23:11Z</time>
      </trkpt>
      <trkpt lat="46.24181" lon="-1.54383">
        <ele>-3</ele>
        <time>2025-06-29T20:23:12Z</time>
      </trkpt>
      <trkpt lat="46.2417" lon="-1.54387">
        <ele>-3</ele>
        <time>2025-06-29T20:23:20Z</time>
      </trkpt>
      <trkpt lat="46.24162" lon="-1.54391">
        <ele>-3</ele>
        <time>2025-06-29T20:23:26Z</time>
      </trkpt>
      <trkpt lat="46.24161" lon="-1.54391">
        <ele>-3</ele>
        <time>2025-06-29T20:23:27Z</time>
      </trkpt>
      <trkpt lat="46.24154" lon="-1.54392">
        <ele>-3.2</ele>
        <time>2025-06-29T20:23:32Z</time>
      </trkpt>
      <trkpt lat="46.24145" lon="-1.54393">
        <ele>-2.8</ele>
        <time>2025-06-29T20:23:38Z</time>
      </trkpt>
      <trkpt lat="46.24135" lon="-1.54396">
        <ele>-2.8</ele>
        <time>2025-06-29T20:23:45Z</time>
      </trkpt>
      <trkpt lat="46.24134" lon="-1.54397">
        <ele>-2.8</ele>
        <time>2025-06-29T20:23:46Z</time>
      </trkpt>
      <trkpt lat="46.24133" lon="-1.54397">
        <ele>-2.8</ele>
        <time>2025-06-29T20:23:47Z</time>
      </trkpt>
      <trkpt lat="46.24122" lon="-1.54399">
        <ele>-2.8</ele>
        <time>2025-06-29T20:23:55Z</time>
      </trkpt>
      <trkpt lat="46.24108" lon="-1.54401">
        <ele>-2.6</ele>
        <time>2025-06-29T20:24:04Z</time>
      </trkpt>
      <trkpt lat="46.24098" lon="-1.54402">
        <ele>-2.6</ele>
        <time>2025-06-29T20:24:11Z</time>
      </trkpt>
      <trkpt lat="46.2409" lon="-1.54404">
        <ele>-2.4</ele>
        <time>2025-06-29T20:24:17Z</time>
      </trkpt>
      <trkpt lat="46.24081" lon="-1.54407">
        <ele>-2.2</ele>
        <time>2025-06-29T20:24:24Z</time>
      </trkpt>
      <trkpt lat="46.2408" lon="-1.54407">
        <ele>-2</ele>
        <time>2025-06-29T20:24:25Z</time>
      </trkpt>
      <trkpt lat="46.24069" lon="-1.54409">
        <ele>-2.2</ele>
        <time>2025-06-29T20:24:32Z</time>
      </trkpt>
      <trkpt lat="46.24055" lon="-1.5441">
        <ele>-2.2</ele>
        <time>2025-06-29T20:24:43Z</time>
      </trkpt>
      <trkpt lat="46.24047" lon="-1.54412">
        <ele>-2.2</ele>
        <time>2025-06-29T20:24:49Z</time>
      </trkpt>
      <trkpt lat="46.24045" lon="-1.54414">
        <ele>-2</ele>
        <time>2025-06-29T20:24:50Z</time>
      </trkpt>
      <trkpt lat="46.24032" lon="-1.54416">
        <ele>-2</ele>
        <time>2025-06-29T20:24:59Z</time>
      </trkpt>
      <trkpt lat="46.24022" lon="-1.5442">
        <ele>-2</ele>
        <time>2025-06-29T20:25:07Z</time>
      </trkpt>
      <trkpt lat="46.24013" lon="-1.54423">
        <ele>-1.8</ele>
        <time>2025-06-29T20:25:14Z</time>
      </trkpt>
      <trkpt lat="46.24006" lon="-1.54425">
        <ele>-2</ele>
        <time>2025-06-29T20:25:19Z</time>
      </trkpt>
      <trkpt lat="46.24" lon="-1.54429">
        <ele>-2</ele>
        <time>2025-06-29T20:25:24Z</time>
      </trkpt>
      <trkpt lat="46.23984" lon="-1.54438">
        <ele>-2</ele>
        <time>2025-06-29T20:25:35Z</time>
      </trkpt>
      <trkpt lat="46.2397" lon="-1.54442">
        <ele>-2.2</ele>
        <time>2025-06-29T20:25:45Z</time>
      </trkpt>
      <trkpt lat="46.23969" lon="-1.54441">
        <ele>-2.2</ele>
        <time>2025-06-29T20:25:46Z</time>
      </trkpt>
      <trkpt lat="46.23966" lon="-1.54429">
        <ele>-2.2</ele>
        <time>2025-06-29T20:25:53Z</time>
      </trkpt>
      <trkpt lat="46.23963" lon="-1.54421">
        <ele>-2</ele>
        <time>2025-06-29T20:25:58Z</time>
      </trkpt>
      <trkpt lat="46.23962" lon="-1.54419">
        <ele>-2</ele>
        <time>2025-06-29T20:25:59Z</time>
      </trkpt>
      <trkpt lat="46.2396" lon="-1.54417">
        <ele>-2.2</ele>
        <time>2025-06-29T20:26:01Z</time>
      </trkpt>
      <trkpt lat="46.23946" lon="-1.54413">
        <ele>-2.4</ele>
        <time>2025-06-29T20:26:11Z</time>
      </trkpt>
      <trkpt lat="46.23933" lon="-1.54413">
        <ele>-2.8</ele>
        <time>2025-06-29T20:26:20Z</time>
      </trkpt>
      <trkpt lat="46.23921" lon="-1.54411">
        <ele>-2.6</ele>
        <time>2025-06-29T20:26:29Z</time>
      </trkpt>
      <trkpt lat="46.23917" lon="-1.54411">
        <ele>-2.6</ele>
        <time>2025-06-29T20:26:32Z</time>
      </trkpt>
      <trkpt lat="46.23905" lon="-1.54412">
        <ele>-2.8</ele>
        <time>2025-06-29T20:26:40Z</time>
      </trkpt>
      <trkpt lat="46.23896" lon="-1.54411">
        <ele>-2.8</ele>
        <time>2025-06-29T20:26:46Z</time>
      </trkpt>
      <trkpt lat="46.23893" lon="-1.54411">
        <ele>-2.8</ele>
        <time>2025-06-29T20:26:48Z</time>
      </trkpt>
      <trkpt lat="46.23889" lon="-1.54412">
        <ele>-2.8</ele>
        <time>2025-06-29T20:26:51Z</time>
      </trkpt>
      <trkpt lat="46.23877" lon="-1.54415">
        <ele>-2.8</ele>
        <time>2025-06-29T20:26:59Z</time>
      </trkpt>
      <trkpt lat="46.23876" lon="-1.54415">
        <ele>-2.8</ele>
        <time>2025-06-29T20:27:00Z</time>
      </trkpt>
      <trkpt lat="46.23869" lon="-1.54414">
        <ele>-3.2</ele>
        <time>2025-06-29T20:27:05Z</time>
      </trkpt>
      <trkpt lat="46.23863" lon="-1.54417">
        <ele>-3.2</ele>
        <time>2025-06-29T20:27:10Z</time>
      </trkpt>
      <trkpt lat="46.23845" lon="-1.54423">
        <ele>-3.2</ele>
        <time>2025-06-29T20:27:22Z</time>
      </trkpt>
      <trkpt lat="46.23838" lon="-1.54425">
        <ele>-3.4</ele>
        <time>2025-06-29T20:27:28Z</time>
      </trkpt>
      <trkpt lat="46.23834" lon="-1.54425">
        <ele>-3.4</ele>
        <time>2025-06-29T20:27:30Z</time>
      </trkpt>
      <trkpt lat="46.23817" lon="-1.54428">
        <ele>-3.6</ele>
        <time>2025-06-29T20:27:42Z</time>
      </trkpt>
      <trkpt lat="46.23806" lon="-1.5443">
        <ele>-3.4</ele>
        <time>2025-06-29T20:27:50Z</time>
      </trkpt>
      <trkpt lat="46.23787" lon="-1.54433">
        <ele>-3.4</ele>
        <time>2025-06-29T20:28:02Z</time>
      </trkpt>
      <trkpt lat="46.23775" lon="-1.54437">
        <ele>-3.6</ele>
        <time>2025-06-29T20:28:12Z</time>
      </trkpt>
      <trkpt lat="46.23765" lon="-1.54439">
        <ele>-3.6</ele>
        <time>2025-06-29T20:28:21Z</time>
      </trkpt>
      <trkpt lat="46.23765" lon="-1.54441">
        <ele>-3.8</ele>
        <time>2025-06-29T20:28:25Z</time>
      </trkpt>
      <trkpt lat="46.23764" lon="-1.54441">
        <ele>-3.8</ele>
        <time>2025-06-29T20:28:31Z</time>
      </trkpt>
      <trkpt lat="46.23764" lon="-1.54441">
        <ele>-3.6</ele>
        <time>2025-06-29T20:28:32Z</time>
      </trkpt>
      <trkpt lat="46.23764" lon="-1.54441">
        <ele>-3.4</ele>
        <time>2025-06-29T20:28:45Z</time>
      </trkpt>
      <trkpt lat="46.23764" lon="-1.54441">
        <ele>-4.2</ele>
        <time>2025-06-29T20:28:50Z</time>
      </trkpt>
      <trkpt lat="46.23765" lon="-1.54439">
        <ele>-4.2</ele>
        <time>2025-06-29T20:28:55Z</time>
      </trkpt>
      <trkpt lat="46.23766" lon="-1.54437">
        <ele>-4.2</ele>
        <time>2025-06-29T20:28:57Z</time>
      </trkpt>
      <trkpt lat="46.23769" lon="-1.54429">
        <ele>-4.4</ele>
        <time>2025-06-29T20:29:03Z</time>
      </trkpt>
      <trkpt lat="46.23768" lon="-1.54429">
        <ele>-4.2</ele>
        <time>2025-06-29T20:29:08Z</time>
      </trkpt>
      <trkpt lat="46.2377" lon="-1.54431">
        <ele>-4.2</ele>
        <time>2025-06-29T20:29:13Z</time>
      </trkpt>
      <trkpt lat="46.23767" lon="-1.54436">
        <ele>-4.2</ele>
        <time>2025-06-29T20:29:18Z</time>
      </trkpt>
      <trkpt lat="46.23764" lon="-1.54442">
        <ele>-4</ele>
        <time>2025-06-29T20:29:24Z</time>
      </trkpt>
      <trkpt lat="46.23764" lon="-1.54443">
        <ele>-4</ele>
        <time>2025-06-29T20:29:30Z</time>
      </trkpt>
      <trkpt lat="46.2376" lon="-1.5444">
        <ele>-4</ele>
        <time>2025-06-29T20:29:36Z</time>
      </trkpt>
      <trkpt lat="46.2375" lon="-1.54436">
        <ele>-4.2</ele>
        <time>2025-06-29T20:29:43Z</time>
      </trkpt>
      <trkpt lat="46.23743" lon="-1.54436">
        <ele>-4.4</ele>
        <time>2025-06-29T20:29:48Z</time>
      </trkpt>
      <trkpt lat="46.23742" lon="-1.54436">
        <ele>-4.2</ele>
        <time>2025-06-29T20:29:49Z</time>
      </trkpt>
      <trkpt lat="46.23739" lon="-1.54435">
        <ele>-4.2</ele>
        <time>2025-06-29T20:29:51Z</time>
      </trkpt>
      <trkpt lat="46.23726" lon="-1.54435">
        <ele>-4.2</ele>
        <time>2025-06-29T20:30:00Z</time>
      </trkpt>
      <trkpt lat="46.23712" lon="-1.54436">
        <ele>-4.2</ele>
        <time>2025-06-29T20:30:11Z</time>
      </trkpt>
      <trkpt lat="46.2371" lon="-1.54436">
        <ele>-4.2</ele>
        <time>2025-06-29T20:30:12Z</time>
      </trkpt>
      <trkpt lat="46.23698" lon="-1.54439">
        <ele>-4</ele>
        <time>2025-06-29T20:30:21Z</time>
      </trkpt>
      <trkpt lat="46.23682" lon="-1.54443">
        <ele>-4.2</ele>
        <time>2025-06-29T20:30:32Z</time>
      </trkpt>
      <trkpt lat="46.23668" lon="-1.54445">
        <ele>-3.8</ele>
        <time>2025-06-29T20:30:42Z</time>
      </trkpt>
      <trkpt lat="46.23654" lon="-1.54449">
        <ele>-4.2</ele>
        <time>2025-06-29T20:30:52Z</time>
      </trkpt>
      <trkpt lat="46.23641" lon="-1.54449">
        <ele>-4.2</ele>
        <time>2025-06-29T20:31:02Z</time>
      </trkpt>
      <trkpt lat="46.23636" lon="-1.54443">
        <ele>-3.8</ele>
        <time>2025-06-29T20:31:08Z</time>
      </trkpt>
      <trkpt lat="46.23635" lon="-1.54427">
        <ele>-3.8</ele>
        <time>2025-06-29T20:31:16Z</time>
      </trkpt>
      <trkpt lat="46.23635" lon="-1.54408">
        <ele>-4</ele>
        <time>2025-06-29T20:31:26Z</time>
      </trkpt>
      <trkpt lat="46.23636" lon="-1.5439">
        <ele>-4.2</ele>
        <time>2025-06-29T20:31:35Z</time>
      </trkpt>
      <trkpt lat="46.23636" lon="-1.54365">
        <ele>-4.2</ele>
        <time>2025-06-29T20:31:47Z</time>
      </trkpt>
      <trkpt lat="46.23634" lon="-1.54354">
        <ele>-4</ele>
        <time>2025-06-29T20:31:54Z</time>
      </trkpt>
      <trkpt lat="46.23634" lon="-1.54351">
        <ele>-4</ele>
        <time>2025-06-29T20:31:56Z</time>
      </trkpt>
      <trkpt lat="46.23633" lon="-1.54332">
        <ele>-4</ele>
        <time>2025-06-29T20:32:05Z</time>
      </trkpt>
      <trkpt lat="46.23625" lon="-1.54316">
        <ele>-4</ele>
        <time>2025-06-29T20:32:14Z</time>
      </trkpt>
      <trkpt lat="46.23621" lon="-1.5431">
        <ele>-4</ele>
        <time>2025-06-29T20:32:18Z</time>
      </trkpt>
      <trkpt lat="46.23616" lon="-1.54301">
        <ele>-4.2</ele>
        <time>2025-06-29T20:32:24Z</time>
      </trkpt>
      <trkpt lat="46.23614" lon="-1.54297">
        <ele>-4.2</ele>
        <time>2025-06-29T20:32:26Z</time>
      </trkpt>
      <trkpt lat="46.23613" lon="-1.54296">
        <ele>-4.2</ele>
        <time>2025-06-29T20:32:27Z</time>
      </trkpt>
      <trkpt lat="46.23605" lon="-1.54277">
        <ele>-4.4</ele>
        <time>2025-06-29T20:32:39Z</time>
      </trkpt>
      <trkpt lat="46.23597" lon="-1.54262">
        <ele>-4.4</ele>
        <time>2025-06-29T20:32:48Z</time>
      </trkpt>
      <trkpt lat="46.23594" lon="-1.54258">
        <ele>-4.4</ele>
        <time>2025-06-29T20:32:51Z</time>
      </trkpt>
      <trkpt lat="46.23583" lon="-1.54237">
        <ele>-4.2</ele>
        <time>2025-06-29T20:33:04Z</time>
      </trkpt>
      <trkpt lat="46.23577" lon="-1.54226">
        <ele>-4.2</ele>
        <time>2025-06-29T20:33:11Z</time>
      </trkpt>
      <trkpt lat="46.23572" lon="-1.54218">
        <ele>-4.4</ele>
        <time>2025-06-29T20:33:16Z</time>
      </trkpt>
      <trkpt lat="46.23568" lon="-1.54212">
        <ele>-4.4</ele>
        <time>2025-06-29T20:33:20Z</time>
      </trkpt>
      <trkpt lat="46.23562" lon="-1.54201">
        <ele>-4.6</ele>
        <time>2025-06-29T20:33:26Z</time>
      </trkpt>
      <trkpt lat="46.2356" lon="-1.54198">
        <ele>-4.6</ele>
        <time>2025-06-29T20:33:28Z</time>
      </trkpt>
      <trkpt lat="46.2355" lon="-1.54179">
        <ele>-4.6</ele>
        <time>2025-06-29T20:33:39Z</time>
      </trkpt>
      <trkpt lat="46.2354" lon="-1.54164">
        <ele>-4.6</ele>
        <time>2025-06-29T20:33:49Z</time>
      </trkpt>
      <trkpt lat="46.23529" lon="-1.54145">
        <ele>-4.6</ele>
        <time>2025-06-29T20:34:01Z</time>
      </trkpt>
      <trkpt lat="46.23522" lon="-1.54131">
        <ele>-4.2</ele>
        <time>2025-06-29T20:34:10Z</time>
      </trkpt>
      <trkpt lat="46.23515" lon="-1.54118">
        <ele>-4.4</ele>
        <time>2025-06-29T20:34:18Z</time>
      </trkpt>
      <trkpt lat="46.23508" lon="-1.54107">
        <ele>-4.2</ele>
        <time>2025-06-29T20:34:25Z</time>
      </trkpt>
      <trkpt lat="46.23499" lon="-1.54085">
        <ele>-4.2</ele>
        <time>2025-06-29T20:34:38Z</time>
      </trkpt>
      <trkpt lat="46.23498" lon="-1.54083">
        <ele>-4.2</ele>
        <time>2025-06-29T20:34:39Z</time>
      </trkpt>
      <trkpt lat="46.2349" lon="-1.54069">
        <ele>-4.2</ele>
        <time>2025-06-29T20:34:48Z</time>
      </trkpt>
      <trkpt lat="46.23489" lon="-1.54068">
        <ele>-4.2</ele>
        <time>2025-06-29T20:34:49Z</time>
      </trkpt>
      <trkpt lat="46.23479" lon="-1.54049">
        <ele>-4.2</ele>
        <time>2025-06-29T20:35:00Z</time>
      </trkpt>
      <trkpt lat="46.23478" lon="-1.54048">
        <ele>-4.4</ele>
        <time>2025-06-29T20:35:01Z</time>
      </trkpt>
      <trkpt lat="46.23467" lon="-1.54029">
        <ele>-4.4</ele>
        <time>2025-06-29T20:35:13Z</time>
      </trkpt>
      <trkpt lat="46.23466" lon="-1.54027">
        <ele>-4.4</ele>
        <time>2025-06-29T20:35:14Z</time>
      </trkpt>
      <trkpt lat="46.23451" lon="-1.54003">
        <ele>-4.6</ele>
        <time>2025-06-29T20:36:14Z</time>
      </trkpt>
      <trkpt lat="46.23446" lon="-1.54">
        <ele>-4.6</ele>
        <time>2025-06-29T20:36:18Z</time>
      </trkpt>
      <trkpt lat="46.23438" lon="-1.54">
        <ele>-5</ele>
        <time>2025-06-29T20:36:26Z</time>
      </trkpt>
      <trkpt lat="46.23436" lon="-1.54">
        <ele>-5.2</ele>
        <time>2025-06-29T20:36:28Z</time>
      </trkpt>
      <trkpt lat="46.2343" lon="-1.54004">
        <ele>-5.2</ele>
        <time>2025-06-29T20:36:33Z</time>
      </trkpt>
      <trkpt lat="46.23427" lon="-1.54006">
        <ele>-5</ele>
        <time>2025-06-29T20:36:35Z</time>
      </trkpt>
      <trkpt lat="46.23423" lon="-1.54009">
        <ele>-4.6</ele>
        <time>2025-06-29T20:36:38Z</time>
      </trkpt>
      <trkpt lat="46.2342" lon="-1.54012">
        <ele>-4.6</ele>
        <time>2025-06-29T20:36:41Z</time>
      </trkpt>
      <trkpt lat="46.23416" lon="-1.54016">
        <ele>-4.4</ele>
        <time>2025-06-29T20:36:45Z</time>
      </trkpt>
      <trkpt lat="46.23407" lon="-1.54025">
        <ele>-4.8</ele>
        <time>2025-06-29T20:36:54Z</time>
      </trkpt>
      <trkpt lat="46.23406" lon="-1.54026">
        <ele>-4.8</ele>
        <time>2025-06-29T20:36:55Z</time>
      </trkpt>
      <trkpt lat="46.23393" lon="-1.54036">
        <ele>-4.8</ele>
        <time>2025-06-29T20:37:05Z</time>
      </trkpt>
      <trkpt lat="46.23378" lon="-1.54049">
        <ele>-5</ele>
        <time>2025-06-29T20:37:17Z</time>
      </trkpt>
      <trkpt lat="46.23367" lon="-1.54058">
        <ele>-4.8</ele>
        <time>2025-06-29T20:37:26Z</time>
      </trkpt>
      <trkpt lat="46.23354" lon="-1.54071">
        <ele>-4.6</ele>
        <time>2025-06-29T20:37:37Z</time>
      </trkpt>
      <trkpt lat="46.23339" lon="-1.54088">
        <ele>-4.8</ele>
        <time>2025-06-29T20:37:50Z</time>
      </trkpt>
      <trkpt lat="46.23334" lon="-1.54094">
        <ele>-4.6</ele>
        <time>2025-06-29T20:37:55Z</time>
      </trkpt>
      <trkpt lat="46.23319" lon="-1.5411">
        <ele>-4.4</ele>
        <time>2025-06-29T20:38:08Z</time>
      </trkpt>
      <trkpt lat="46.23318" lon="-1.54113">
        <ele>-4.6</ele>
        <time>2025-06-29T20:38:10Z</time>
      </trkpt>
      <trkpt lat="46.23311" lon="-1.54122">
        <ele>-4.4</ele>
        <time>2025-06-29T20:38:17Z</time>
      </trkpt>
      <trkpt lat="46.23303" lon="-1.54129">
        <ele>-4.2</ele>
        <time>2025-06-29T20:38:24Z</time>
      </trkpt>
      <trkpt lat="46.233" lon="-1.54132">
        <ele>-4.2</ele>
        <time>2025-06-29T20:38:27Z</time>
      </trkpt>
      <trkpt lat="46.23299" lon="-1.54133">
        <ele>-4.4</ele>
        <time>2025-06-29T20:38:28Z</time>
      </trkpt>
      <trkpt lat="46.23292" lon="-1.54134">
        <ele>-4.4</ele>
        <time>2025-06-29T20:38:33Z</time>
      </trkpt>
      <trkpt lat="46.23291" lon="-1.54133">
        <ele>-4.4</ele>
        <time>2025-06-29T20:38:34Z</time>
      </trkpt>
      <trkpt lat="46.2329" lon="-1.54131">
        <ele>-4.4</ele>
        <time>2025-06-29T20:38:35Z</time>
      </trkpt>
      <trkpt lat="46.23283" lon="-1.5411">
        <ele>-4.2</ele>
        <time>2025-06-29T20:38:47Z</time>
      </trkpt>
      <trkpt lat="46.23278" lon="-1.54097">
        <ele>-4.2</ele>
        <time>2025-06-29T20:38:54Z</time>
      </trkpt>
      <trkpt lat="46.23273" lon="-1.54082">
        <ele>-4</ele>
        <time>2025-06-29T20:39:03Z</time>
      </trkpt>
      <trkpt lat="46.23265" lon="-1.54062">
        <ele>-3.4</ele>
        <time>2025-06-29T20:39:14Z</time>
      </trkpt>
      <trkpt lat="46.23259" lon="-1.5405">
        <ele>-3.6</ele>
        <time>2025-06-29T20:39:22Z</time>
      </trkpt>
      <trkpt lat="46.23257" lon="-1.54046">
        <ele>-3.6</ele>
        <time>2025-06-29T20:39:24Z</time>
      </trkpt>
      <trkpt lat="46.23251" lon="-1.5403">
        <ele>-3.4</ele>
        <time>2025-06-29T20:39:33Z</time>
      </trkpt>
      <trkpt lat="46.23245" lon="-1.54014">
        <ele>-3.6</ele>
        <time>2025-06-29T20:39:42Z</time>
      </trkpt>
      <trkpt lat="46.23241" lon="-1.54003">
        <ele>-3.6</ele>
        <time>2025-06-29T20:39:48Z</time>
      </trkpt>
      <trkpt lat="46.23236" lon="-1.53991">
        <ele>-3.8</ele>
        <time>2025-06-29T20:39:54Z</time>
      </trkpt>
      <trkpt lat="46.23235" lon="-1.53987">
        <ele>-4</ele>
        <time>2025-06-29T20:39:56Z</time>
      </trkpt>
      <trkpt lat="46.2323" lon="-1.53973">
        <ele>-3.8</ele>
        <time>2025-06-29T20:40:04Z</time>
      </trkpt>
      <trkpt lat="46.23222" lon="-1.53954">
        <ele>-3.8</ele>
        <time>2025-06-29T20:40:14Z</time>
      </trkpt>
      <trkpt lat="46.23217" lon="-1.5394">
        <ele>-3.8</ele>
        <time>2025-06-29T20:40:22Z</time>
      </trkpt>
      <trkpt lat="46.2321" lon="-1.53924">
        <ele>-3.6</ele>
        <time>2025-06-29T20:40:32Z</time>
      </trkpt>
      <trkpt lat="46.23206" lon="-1.53909">
        <ele>-3.6</ele>
        <time>2025-06-29T20:40:40Z</time>
      </trkpt>
      <trkpt lat="46.23198" lon="-1.5389">
        <ele>-3.4</ele>
        <time>2025-06-29T20:40:50Z</time>
      </trkpt>
      <trkpt lat="46.23191" lon="-1.53874">
        <ele>-3.6</ele>
        <time>2025-06-29T20:40:58Z</time>
      </trkpt>
      <trkpt lat="46.23184" lon="-1.53854">
        <ele>-3.6</ele>
        <time>2025-06-29T20:41:10Z</time>
      </trkpt>
      <trkpt lat="46.23176" lon="-1.53835">
        <ele>-3.2</ele>
        <time>2025-06-29T20:41:20Z</time>
      </trkpt>
      <trkpt lat="46.23171" lon="-1.53819">
        <ele>-3.4</ele>
        <time>2025-06-29T20:41:29Z</time>
      </trkpt>
      <trkpt lat="46.23166" lon="-1.53803">
        <ele>-3.4</ele>
        <time>2025-06-29T20:41:39Z</time>
      </trkpt>
      <trkpt lat="46.23155" lon="-1.53786">
        <ele>-3.6</ele>
        <time>2025-06-29T20:41:51Z</time>
      </trkpt>
      <trkpt lat="46.23149" lon="-1.53796">
        <ele>-3.6</ele>
        <time>2025-06-29T20:41:57Z</time>
      </trkpt>
      <trkpt lat="46.23143" lon="-1.53808">
        <ele>-3.6</ele>
        <time>2025-06-29T20:42:05Z</time>
      </trkpt>
      <trkpt lat="46.23139" lon="-1.53813">
        <ele>-3.6</ele>
        <time>2025-06-29T20:42:08Z</time>
      </trkpt>
      <trkpt lat="46.23135" lon="-1.53819">
        <ele>-3.8</ele>
        <time>2025-06-29T20:42:12Z</time>
      </trkpt>
      <trkpt lat="46.23132" lon="-1.53825">
        <ele>-3</ele>
        <time>2025-06-29T20:42:16Z</time>
      </trkpt>
      <trkpt lat="46.23124" lon="-1.53837">
        <ele>-3</ele>
        <time>2025-06-29T20:42:24Z</time>
      </trkpt>
      <trkpt lat="46.23123" lon="-1.5384">
        <ele>-3.2</ele>
        <time>2025-06-29T20:42:26Z</time>
      </trkpt>
      <trkpt lat="46.23116" lon="-1.53852">
        <ele>-3.4</ele>
        <time>2025-06-29T20:42:34Z</time>
      </trkpt>
      <trkpt lat="46.23112" lon="-1.53857">
        <ele>-3</ele>
        <time>2025-06-29T20:42:38Z</time>
      </trkpt>
      <trkpt lat="46.23107" lon="-1.53868">
        <ele>-2.6</ele>
        <time>2025-06-29T20:42:45Z</time>
      </trkpt>
      <trkpt lat="46.23099" lon="-1.53882">
        <ele>-3.4</ele>
        <time>2025-06-29T20:42:55Z</time>
      </trkpt>
      <trkpt lat="46.23094" lon="-1.5389">
        <ele>-3.2</ele>
        <time>2025-06-29T20:43:00Z</time>
      </trkpt>
      <trkpt lat="46.2309" lon="-1.53898">
        <ele>-2.8</ele>
        <time>2025-06-29T20:43:05Z</time>
      </trkpt>
      <trkpt lat="46.23085" lon="-1.53911">
        <ele>-3.6</ele>
        <time>2025-06-29T20:43:13Z</time>
      </trkpt>
      <trkpt lat="46.23079" lon="-1.53927">
        <ele>-3.4</ele>
        <time>2025-06-29T20:43:22Z</time>
      </trkpt>
      <trkpt lat="46.23072" lon="-1.53939">
        <ele>-3.6</ele>
        <time>2025-06-29T20:43:30Z</time>
      </trkpt>
      <trkpt lat="46.23072" lon="-1.53941">
        <ele>-3.4</ele>
        <time>2025-06-29T20:43:31Z</time>
      </trkpt>
      <trkpt lat="46.23066" lon="-1.53956">
        <ele>-3.4</ele>
        <time>2025-06-29T20:43:39Z</time>
      </trkpt>
      <trkpt lat="46.23065" lon="-1.53959">
        <ele>-3.4</ele>
        <time>2025-06-29T20:43:41Z</time>
      </trkpt>
      <trkpt lat="46.23061" lon="-1.53965">
        <ele>-3.4</ele>
        <time>2025-06-29T20:43:45Z</time>
      </trkpt>
      <trkpt lat="46.23059" lon="-1.5397">
        <ele>-3.4</ele>
        <time>2025-06-29T20:43:48Z</time>
      </trkpt>
      <trkpt lat="46.23055" lon="-1.5398">
        <ele>-3.4</ele>
        <time>2025-06-29T20:43:53Z</time>
      </trkpt>
      <trkpt lat="46.2305" lon="-1.53992">
        <ele>-3.4</ele>
        <time>2025-06-29T20:44:00Z</time>
      </trkpt>
      <trkpt lat="46.23048" lon="-1.54001">
        <ele>-3.2</ele>
        <time>2025-06-29T20:44:05Z</time>
      </trkpt>
      <trkpt lat="46.23041" lon="-1.54019">
        <ele>-3.4</ele>
        <time>2025-06-29T20:44:15Z</time>
      </trkpt>
      <trkpt lat="46.23038" lon="-1.54029">
        <ele>-3.2</ele>
        <time>2025-06-29T20:44:21Z</time>
      </trkpt>
      <trkpt lat="46.23037" lon="-1.54035">
        <ele>-3.2</ele>
        <time>2025-06-29T20:44:24Z</time>
      </trkpt>
      <trkpt lat="46.23038" lon="-1.54047">
        <ele>-3.4</ele>
        <time>2025-06-29T20:44:30Z</time>
      </trkpt>
      <trkpt lat="46.23038" lon="-1.54049">
        <ele>-3.4</ele>
        <time>2025-06-29T20:44:31Z</time>
      </trkpt>
      <trkpt lat="46.23039" lon="-1.54051">
        <ele>-3.6</ele>
        <time>2025-06-29T20:44:32Z</time>
      </trkpt>
      <trkpt lat="46.23043" lon="-1.54057">
        <ele>-3.6</ele>
        <time>2025-06-29T20:44:36Z</time>
      </trkpt>
      <trkpt lat="46.23045" lon="-1.54062">
        <ele>-3.6</ele>
        <time>2025-06-29T20:44:39Z</time>
      </trkpt>
      <trkpt lat="46.23044" lon="-1.5407">
        <ele>-3.6</ele>
        <time>2025-06-29T20:44:43Z</time>
      </trkpt>
      <trkpt lat="46.23039" lon="-1.54074">
        <ele>-3.4</ele>
        <time>2025-06-29T20:44:48Z</time>
      </trkpt>
      <trkpt lat="46.23037" lon="-1.54073">
        <ele>-3.4</ele>
        <time>2025-06-29T20:44:49Z</time>
      </trkpt>
      <trkpt lat="46.23023" lon="-1.54078">
        <ele>-3.4</ele>
        <time>2025-06-29T20:44:59Z</time>
      </trkpt>
      <trkpt lat="46.23009" lon="-1.54084">
        <ele>-3.4</ele>
        <time>2025-06-29T20:45:09Z</time>
      </trkpt>
      <trkpt lat="46.23001" lon="-1.54086">
        <ele>-3.2</ele>
        <time>2025-06-29T20:45:15Z</time>
      </trkpt>
      <trkpt lat="46.22996" lon="-1.54086">
        <ele>-3.4</ele>
        <time>2025-06-29T20:45:18Z</time>
      </trkpt>
      <trkpt lat="46.22985" lon="-1.54085">
        <ele>-3.2</ele>
        <time>2025-06-29T20:45:26Z</time>
      </trkpt>
      <trkpt lat="46.22975" lon="-1.54084">
        <ele>-3.4</ele>
        <time>2025-06-29T20:45:34Z</time>
      </trkpt>
      <trkpt lat="46.22963" lon="-1.54083">
        <ele>-3.2</ele>
        <time>2025-06-29T20:45:43Z</time>
      </trkpt>
      <trkpt lat="46.22953" lon="-1.54084">
        <ele>-3.2</ele>
        <time>2025-06-29T20:45:51Z</time>
      </trkpt>
      <trkpt lat="46.22941" lon="-1.54087">
        <ele>-2.6</ele>
        <time>2025-06-29T20:46:00Z</time>
      </trkpt>
      <trkpt lat="46.22933" lon="-1.5409">
        <ele>-2.8</ele>
        <time>2025-06-29T20:46:06Z</time>
      </trkpt>
      <trkpt lat="46.22931" lon="-1.5409">
        <ele>-2.8</ele>
        <time>2025-06-29T20:46:07Z</time>
      </trkpt>
      <trkpt lat="46.22923" lon="-1.54096">
        <ele>-3.2</ele>
        <time>2025-06-29T20:46:13Z</time>
      </trkpt>
      <trkpt lat="46.22917" lon="-1.54106">
        <ele>-3.2</ele>
        <time>2025-06-29T20:46:21Z</time>
      </trkpt>
      <trkpt lat="46.22911" lon="-1.5411">
        <ele>-3</ele>
        <time>2025-06-29T20:46:25Z</time>
      </trkpt>
      <trkpt lat="46.2291" lon="-1.54111">
        <ele>-3</ele>
        <time>2025-06-29T20:46:26Z</time>
      </trkpt>
      <trkpt lat="46.22907" lon="-1.54113">
        <ele>-2.8</ele>
        <time>2025-06-29T20:46:28Z</time>
      </trkpt>
      <trkpt lat="46.22902" lon="-1.54118">
        <ele>-3</ele>
        <time>2025-06-29T20:46:32Z</time>
      </trkpt>
      <trkpt lat="46.229" lon="-1.5412">
        <ele>-3</ele>
        <time>2025-06-29T20:46:34Z</time>
      </trkpt>
      <trkpt lat="46.22892" lon="-1.54131">
        <ele>-2.8</ele>
        <time>2025-06-29T20:46:41Z</time>
      </trkpt>
      <trkpt lat="46.22885" lon="-1.54138">
        <ele>-2.8</ele>
        <time>2025-06-29T20:46:48Z</time>
      </trkpt>
      <trkpt lat="46.2288" lon="-1.54143">
        <ele>-2.8</ele>
        <time>2025-06-29T20:46:52Z</time>
      </trkpt>
      <trkpt lat="46.22878" lon="-1.54145">
        <ele>-2.6</ele>
        <time>2025-06-29T20:46:54Z</time>
      </trkpt>
      <trkpt lat="46.22871" lon="-1.54157">
        <ele>-3</ele>
        <time>2025-06-29T20:47:02Z</time>
      </trkpt>
      <trkpt lat="46.22863" lon="-1.54166">
        <ele>-3</ele>
        <time>2025-06-29T20:47:09Z</time>
      </trkpt>
      <trkpt lat="46.22857" lon="-1.5418">
        <ele>-3</ele>
        <time>2025-06-29T20:47:19Z</time>
      </trkpt>
      <trkpt lat="46.22857" lon="-1.54185">
        <ele>-2.8</ele>
        <time>2025-06-29T20:47:22Z</time>
      </trkpt>
      <trkpt lat="46.22859" lon="-1.54188">
        <ele>-2.8</ele>
        <time>2025-06-29T20:47:25Z</time>
      </trkpt>
      <trkpt lat="46.22869" lon="-1.54195">
        <ele>-3.2</ele>
        <time>2025-06-29T20:47:34Z</time>
      </trkpt>
      <trkpt lat="46.22875" lon="-1.54197">
        <ele>-3</ele>
        <time>2025-06-29T20:47:41Z</time>
      </trkpt>
      <trkpt lat="46.22878" lon="-1.54195">
        <ele>-2.6</ele>
        <time>2025-06-29T20:47:47Z</time>
      </trkpt>
      <trkpt lat="46.22878" lon="-1.54194">
        <ele>-2.6</ele>
        <time>2025-06-29T20:47:53Z</time>
      </trkpt>
    </trkseg>
  </trk>
</gpx>